<?xml version="1.0" encoding="UTF-8" standalone="no" ?>
<gpx xmlns="http://www.topografix.com/GPX/1/1" xmlns:xsi="http://www.w3.org/2001/XMLSchema-instance" xsi:schemaLocation="http://www.topografix.com/GPX/1/1 http://www.topografix.com/GPX/1/1/gpx.xsd" version="1.1" creator="VisuGPX - https://www.visugpx.com">
  <metadata>
    <name>Barlagne circuit</name>
    <desc><![CDATA[Circuit en forêt de Barlagne]]></desc>
  </metadata>
  <trk>
    <name><![CDATA[2015-02-19-01 Barlagne tour]]></name>
    <trkseg>
      <trkpt lat="43.00345" lon="-0.67503">
        <ele>1005.9</ele>
        <time>2015-02-19T07:51:33Z</time>
      </trkpt>
      <trkpt lat="43.00341" lon="-0.67515">
        <ele>1004.5</ele>
        <time>2015-02-19T07:51:52Z</time>
      </trkpt>
      <trkpt lat="43.00345" lon="-0.67504">
        <ele>999.5</ele>
        <time>2015-02-19T07:53:18Z</time>
      </trkpt>
      <trkpt lat="43.00338" lon="-0.67493">
        <ele>1000.3</ele>
        <time>2015-02-19T07:53:40Z</time>
      </trkpt>
      <trkpt lat="43.00331" lon="-0.67484">
        <ele>1000.6</ele>
        <time>2015-02-19T07:53:46Z</time>
      </trkpt>
      <trkpt lat="43.0033" lon="-0.67472">
        <ele>1003</ele>
        <time>2015-02-19T07:55:28Z</time>
      </trkpt>
      <trkpt lat="43.00321" lon="-0.67473">
        <ele>1003.6</ele>
        <time>2015-02-19T07:57:50Z</time>
      </trkpt>
      <trkpt lat="43.0033" lon="-0.67473">
        <ele>1003.9</ele>
        <time>2015-02-19T07:58:09Z</time>
      </trkpt>
      <trkpt lat="43.00321" lon="-0.67469">
        <ele>1007.4</ele>
        <time>2015-02-19T08:00:41Z</time>
      </trkpt>
      <trkpt lat="43.00329" lon="-0.67475">
        <ele>1008.4</ele>
        <time>2015-02-19T08:01:10Z</time>
      </trkpt>
      <trkpt lat="43.00325" lon="-0.67464">
        <ele>1012.2</ele>
        <time>2015-02-19T08:02:34Z</time>
      </trkpt>
      <trkpt lat="43.00321" lon="-0.67475">
        <ele>1014.7</ele>
        <time>2015-02-19T08:07:47Z</time>
      </trkpt>
      <trkpt lat="43.00319" lon="-0.67488">
        <ele>1014.3</ele>
        <time>2015-02-19T08:07:58Z</time>
      </trkpt>
      <trkpt lat="43.00312" lon="-0.67497">
        <ele>1013.1</ele>
        <time>2015-02-19T08:08:12Z</time>
      </trkpt>
      <trkpt lat="43.00304" lon="-0.67504">
        <ele>1012.6</ele>
        <time>2015-02-19T08:08:25Z</time>
      </trkpt>
      <trkpt lat="43.00299" lon="-0.67514">
        <ele>1012.5</ele>
        <time>2015-02-19T08:08:35Z</time>
      </trkpt>
      <trkpt lat="43.00293" lon="-0.67524">
        <ele>1012.3</ele>
        <time>2015-02-19T08:09:06Z</time>
      </trkpt>
      <trkpt lat="43.00285" lon="-0.6753">
        <ele>1012.1</ele>
        <time>2015-02-19T08:09:19Z</time>
      </trkpt>
      <trkpt lat="43.00277" lon="-0.67524">
        <ele>1013.5</ele>
        <time>2015-02-19T08:09:32Z</time>
      </trkpt>
      <trkpt lat="43.00267" lon="-0.67522">
        <ele>1014.4</ele>
        <time>2015-02-19T08:09:42Z</time>
      </trkpt>
      <trkpt lat="43.00258" lon="-0.67524">
        <ele>1015.8</ele>
        <time>2015-02-19T08:09:55Z</time>
      </trkpt>
      <trkpt lat="43.00249" lon="-0.67521">
        <ele>1019.1</ele>
        <time>2015-02-19T08:10:13Z</time>
      </trkpt>
      <trkpt lat="43.0024" lon="-0.67518">
        <ele>1022.4</ele>
        <time>2015-02-19T08:10:27Z</time>
      </trkpt>
      <trkpt lat="43.00231" lon="-0.67514">
        <ele>1025.2</ele>
        <time>2015-02-19T08:10:36Z</time>
      </trkpt>
      <trkpt lat="43.00221" lon="-0.67512">
        <ele>1026.5</ele>
        <time>2015-02-19T08:10:45Z</time>
      </trkpt>
      <trkpt lat="43.00213" lon="-0.67506">
        <ele>1027.5</ele>
        <time>2015-02-19T08:10:55Z</time>
      </trkpt>
      <trkpt lat="43.00203" lon="-0.67506">
        <ele>1027.9</ele>
        <time>2015-02-19T08:11:06Z</time>
      </trkpt>
      <trkpt lat="43.00194" lon="-0.67505">
        <ele>1027.9</ele>
        <time>2015-02-19T08:11:20Z</time>
      </trkpt>
      <trkpt lat="43.00185" lon="-0.67505">
        <ele>1029.6</ele>
        <time>2015-02-19T08:11:36Z</time>
      </trkpt>
      <trkpt lat="43.00176" lon="-0.67503">
        <ele>1030.3</ele>
        <time>2015-02-19T08:11:48Z</time>
      </trkpt>
      <trkpt lat="43.00167" lon="-0.67499">
        <ele>1030.5</ele>
        <time>2015-02-19T08:12:09Z</time>
      </trkpt>
      <trkpt lat="43.00166" lon="-0.67487">
        <ele>1032.8</ele>
        <time>2015-02-19T08:13:26Z</time>
      </trkpt>
      <trkpt lat="43.00161" lon="-0.67498">
        <ele>1032.2</ele>
        <time>2015-02-19T08:15:08Z</time>
      </trkpt>
      <trkpt lat="43.00156" lon="-0.67509">
        <ele>1034</ele>
        <time>2015-02-19T08:15:28Z</time>
      </trkpt>
      <trkpt lat="43.00154" lon="-0.67522">
        <ele>1036</ele>
        <time>2015-02-19T08:15:44Z</time>
      </trkpt>
      <trkpt lat="43.00153" lon="-0.67534">
        <ele>1038.5</ele>
        <time>2015-02-19T08:15:58Z</time>
      </trkpt>
      <trkpt lat="43.00149" lon="-0.67547">
        <ele>1041.1</ele>
        <time>2015-02-19T08:16:12Z</time>
      </trkpt>
      <trkpt lat="43.00147" lon="-0.67559">
        <ele>1042.9</ele>
        <time>2015-02-19T08:16:21Z</time>
      </trkpt>
      <trkpt lat="43.00143" lon="-0.67571">
        <ele>1045.4</ele>
        <time>2015-02-19T08:16:33Z</time>
      </trkpt>
      <trkpt lat="43.00139" lon="-0.67582">
        <ele>1047.8</ele>
        <time>2015-02-19T08:16:44Z</time>
      </trkpt>
      <trkpt lat="43.00136" lon="-0.67594">
        <ele>1049.1</ele>
        <time>2015-02-19T08:16:55Z</time>
      </trkpt>
      <trkpt lat="43.00131" lon="-0.67604">
        <ele>1049.8</ele>
        <time>2015-02-19T08:17:05Z</time>
      </trkpt>
      <trkpt lat="43.00127" lon="-0.67616">
        <ele>1050.6</ele>
        <time>2015-02-19T08:17:13Z</time>
      </trkpt>
      <trkpt lat="43.00122" lon="-0.67627">
        <ele>1051.4</ele>
        <time>2015-02-19T08:17:25Z</time>
      </trkpt>
      <trkpt lat="43.00115" lon="-0.67635">
        <ele>1052.7</ele>
        <time>2015-02-19T08:17:35Z</time>
      </trkpt>
      <trkpt lat="43.00109" lon="-0.67645">
        <ele>1054.6</ele>
        <time>2015-02-19T08:17:48Z</time>
      </trkpt>
      <trkpt lat="43.00102" lon="-0.67653">
        <ele>1057.1</ele>
        <time>2015-02-19T08:18:01Z</time>
      </trkpt>
      <trkpt lat="43.00093" lon="-0.67658">
        <ele>1058.3</ele>
        <time>2015-02-19T08:18:13Z</time>
      </trkpt>
      <trkpt lat="43.00084" lon="-0.67662">
        <ele>1058.4</ele>
        <time>2015-02-19T08:18:26Z</time>
      </trkpt>
      <trkpt lat="43.00075" lon="-0.67665">
        <ele>1059.3</ele>
        <time>2015-02-19T08:18:40Z</time>
      </trkpt>
      <trkpt lat="43.00066" lon="-0.67667">
        <ele>1059.2</ele>
        <time>2015-02-19T08:18:54Z</time>
      </trkpt>
      <trkpt lat="43.00056" lon="-0.67665">
        <ele>1060.1</ele>
        <time>2015-02-19T08:19:09Z</time>
      </trkpt>
      <trkpt lat="43.00048" lon="-0.67662">
        <ele>1062.9</ele>
        <time>2015-02-19T08:19:21Z</time>
      </trkpt>
      <trkpt lat="43.00039" lon="-0.67664">
        <ele>1063.7</ele>
        <time>2015-02-19T08:19:33Z</time>
      </trkpt>
      <trkpt lat="43.00032" lon="-0.67673">
        <ele>1070.1</ele>
        <time>2015-02-19T08:20:01Z</time>
      </trkpt>
      <trkpt lat="43.00024" lon="-0.67666">
        <ele>1071.6</ele>
        <time>2015-02-19T08:20:12Z</time>
      </trkpt>
      <trkpt lat="43.00019" lon="-0.67654">
        <ele>1074.7</ele>
        <time>2015-02-19T08:20:23Z</time>
      </trkpt>
      <trkpt lat="43.00013" lon="-0.67643">
        <ele>1077.1</ele>
        <time>2015-02-19T08:20:32Z</time>
      </trkpt>
      <trkpt lat="43.00008" lon="-0.67632">
        <ele>1080.4</ele>
        <time>2015-02-19T08:20:45Z</time>
      </trkpt>
      <trkpt lat="43.00003" lon="-0.67621">
        <ele>1083.1</ele>
        <time>2015-02-19T08:20:58Z</time>
      </trkpt>
      <trkpt lat="42.99997" lon="-0.67612">
        <ele>1086.7</ele>
        <time>2015-02-19T08:21:10Z</time>
      </trkpt>
      <trkpt lat="42.99991" lon="-0.676">
        <ele>1090.1</ele>
        <time>2015-02-19T08:21:24Z</time>
      </trkpt>
      <trkpt lat="42.99984" lon="-0.67593">
        <ele>1094.1</ele>
        <time>2015-02-19T08:21:38Z</time>
      </trkpt>
      <trkpt lat="42.99976" lon="-0.67586">
        <ele>1096.1</ele>
        <time>2015-02-19T08:21:46Z</time>
      </trkpt>
      <trkpt lat="42.99967" lon="-0.67579">
        <ele>1096.9</ele>
        <time>2015-02-19T08:21:54Z</time>
      </trkpt>
      <trkpt lat="42.9996" lon="-0.67571">
        <ele>1097</ele>
        <time>2015-02-19T08:22:04Z</time>
      </trkpt>
      <trkpt lat="42.99955" lon="-0.67561">
        <ele>1097.5</ele>
        <time>2015-02-19T08:22:16Z</time>
      </trkpt>
      <trkpt lat="42.9995" lon="-0.67549">
        <ele>1097.9</ele>
        <time>2015-02-19T08:22:27Z</time>
      </trkpt>
      <trkpt lat="42.99942" lon="-0.67541">
        <ele>1098.8</ele>
        <time>2015-02-19T08:22:35Z</time>
      </trkpt>
      <trkpt lat="42.99935" lon="-0.67532">
        <ele>1100</ele>
        <time>2015-02-19T08:22:45Z</time>
      </trkpt>
      <trkpt lat="42.99928" lon="-0.67522">
        <ele>1101.4</ele>
        <time>2015-02-19T08:22:54Z</time>
      </trkpt>
      <trkpt lat="42.99923" lon="-0.6751">
        <ele>1103.1</ele>
        <time>2015-02-19T08:23:05Z</time>
      </trkpt>
      <trkpt lat="42.99918" lon="-0.675">
        <ele>1105</ele>
        <time>2015-02-19T08:23:14Z</time>
      </trkpt>
      <trkpt lat="42.99911" lon="-0.67491">
        <ele>1105.2</ele>
        <time>2015-02-19T08:23:21Z</time>
      </trkpt>
      <trkpt lat="42.99904" lon="-0.67482">
        <ele>1105.7</ele>
        <time>2015-02-19T08:23:31Z</time>
      </trkpt>
      <trkpt lat="42.99897" lon="-0.67475">
        <ele>1106</ele>
        <time>2015-02-19T08:23:41Z</time>
      </trkpt>
      <trkpt lat="42.9989" lon="-0.67467">
        <ele>1106.1</ele>
        <time>2015-02-19T08:23:49Z</time>
      </trkpt>
      <trkpt lat="42.99882" lon="-0.67458">
        <ele>1105.3</ele>
        <time>2015-02-19T08:23:57Z</time>
      </trkpt>
      <trkpt lat="42.99873" lon="-0.67456">
        <ele>1104.1</ele>
        <time>2015-02-19T08:24:06Z</time>
      </trkpt>
      <trkpt lat="42.99869" lon="-0.67468">
        <ele>1104.5</ele>
        <time>2015-02-19T08:24:18Z</time>
      </trkpt>
      <trkpt lat="42.99866" lon="-0.6748">
        <ele>1104.8</ele>
        <time>2015-02-19T08:24:29Z</time>
      </trkpt>
      <trkpt lat="42.99872" lon="-0.6749">
        <ele>1103.9</ele>
        <time>2015-02-19T08:24:45Z</time>
      </trkpt>
      <trkpt lat="42.99877" lon="-0.67501">
        <ele>1103.8</ele>
        <time>2015-02-19T08:24:56Z</time>
      </trkpt>
      <trkpt lat="42.99882" lon="-0.67512">
        <ele>1104.4</ele>
        <time>2015-02-19T08:25:06Z</time>
      </trkpt>
      <trkpt lat="42.99878" lon="-0.67524">
        <ele>1105.9</ele>
        <time>2015-02-19T08:25:20Z</time>
      </trkpt>
      <trkpt lat="42.99877" lon="-0.67536">
        <ele>1108.4</ele>
        <time>2015-02-19T08:25:37Z</time>
      </trkpt>
      <trkpt lat="42.99877" lon="-0.6755">
        <ele>1110.4</ele>
        <time>2015-02-19T08:25:49Z</time>
      </trkpt>
      <trkpt lat="42.99879" lon="-0.67562">
        <ele>1112.3</ele>
        <time>2015-02-19T08:26:01Z</time>
      </trkpt>
      <trkpt lat="42.99881" lon="-0.67575">
        <ele>1113.9</ele>
        <time>2015-02-19T08:26:16Z</time>
      </trkpt>
      <trkpt lat="42.99883" lon="-0.67587">
        <ele>1116.9</ele>
        <time>2015-02-19T08:26:31Z</time>
      </trkpt>
      <trkpt lat="42.99878" lon="-0.67599">
        <ele>1117.9</ele>
        <time>2015-02-19T08:26:43Z</time>
      </trkpt>
      <trkpt lat="42.99878" lon="-0.67612">
        <ele>1119.4</ele>
        <time>2015-02-19T08:26:52Z</time>
      </trkpt>
      <trkpt lat="42.99878" lon="-0.67625">
        <ele>1122.6</ele>
        <time>2015-02-19T08:27:45Z</time>
      </trkpt>
      <trkpt lat="42.99869" lon="-0.67623">
        <ele>1123.2</ele>
        <time>2015-02-19T08:28:52Z</time>
      </trkpt>
      <trkpt lat="42.99878" lon="-0.67625">
        <ele>1123.2</ele>
        <time>2015-02-19T08:30:01Z</time>
      </trkpt>
      <trkpt lat="42.99874" lon="-0.67636">
        <ele>1125.1</ele>
        <time>2015-02-19T08:30:19Z</time>
      </trkpt>
      <trkpt lat="42.99873" lon="-0.67649">
        <ele>1125.6</ele>
        <time>2015-02-19T08:30:28Z</time>
      </trkpt>
      <trkpt lat="42.99874" lon="-0.67662">
        <ele>1126.5</ele>
        <time>2015-02-19T08:30:41Z</time>
      </trkpt>
      <trkpt lat="42.99875" lon="-0.67675">
        <ele>1126.2</ele>
        <time>2015-02-19T08:30:52Z</time>
      </trkpt>
      <trkpt lat="42.99873" lon="-0.67687">
        <ele>1122.2</ele>
        <time>2015-02-19T08:31:07Z</time>
      </trkpt>
      <trkpt lat="42.99875" lon="-0.67699">
        <ele>1123.2</ele>
        <time>2015-02-19T08:31:20Z</time>
      </trkpt>
      <trkpt lat="42.9988" lon="-0.67709">
        <ele>1123</ele>
        <time>2015-02-19T08:31:33Z</time>
      </trkpt>
      <trkpt lat="42.99879" lon="-0.67722">
        <ele>1125.4</ele>
        <time>2015-02-19T08:31:48Z</time>
      </trkpt>
      <trkpt lat="42.99881" lon="-0.67735">
        <ele>1126.8</ele>
        <time>2015-02-19T08:32:08Z</time>
      </trkpt>
      <trkpt lat="42.99885" lon="-0.67746">
        <ele>1127</ele>
        <time>2015-02-19T08:32:19Z</time>
      </trkpt>
      <trkpt lat="42.99886" lon="-0.67759">
        <ele>1126.9</ele>
        <time>2015-02-19T08:32:33Z</time>
      </trkpt>
      <trkpt lat="42.99881" lon="-0.6777">
        <ele>1128.3</ele>
        <time>2015-02-19T08:32:46Z</time>
      </trkpt>
      <trkpt lat="42.99882" lon="-0.67782">
        <ele>1127.5</ele>
        <time>2015-02-19T08:32:58Z</time>
      </trkpt>
      <trkpt lat="42.99877" lon="-0.67793">
        <ele>1129.2</ele>
        <time>2015-02-19T08:33:08Z</time>
      </trkpt>
      <trkpt lat="42.99873" lon="-0.67804">
        <ele>1131</ele>
        <time>2015-02-19T08:33:18Z</time>
      </trkpt>
      <trkpt lat="42.9987" lon="-0.67816">
        <ele>1131.6</ele>
        <time>2015-02-19T08:33:28Z</time>
      </trkpt>
      <trkpt lat="42.99869" lon="-0.67829">
        <ele>1131.9</ele>
        <time>2015-02-19T08:33:37Z</time>
      </trkpt>
      <trkpt lat="42.9987" lon="-0.67842">
        <ele>1130.7</ele>
        <time>2015-02-19T08:33:46Z</time>
      </trkpt>
      <trkpt lat="42.99873" lon="-0.67853">
        <ele>1128</ele>
        <time>2015-02-19T08:33:56Z</time>
      </trkpt>
      <trkpt lat="42.99872" lon="-0.67866">
        <ele>1127.2</ele>
        <time>2015-02-19T08:34:09Z</time>
      </trkpt>
      <trkpt lat="42.99868" lon="-0.67878">
        <ele>1127.8</ele>
        <time>2015-02-19T08:34:21Z</time>
      </trkpt>
      <trkpt lat="42.99863" lon="-0.67889">
        <ele>1129.4</ele>
        <time>2015-02-19T08:34:32Z</time>
      </trkpt>
      <trkpt lat="42.99859" lon="-0.679">
        <ele>1130.5</ele>
        <time>2015-02-19T08:34:43Z</time>
      </trkpt>
      <trkpt lat="42.99852" lon="-0.67909">
        <ele>1133.1</ele>
        <time>2015-02-19T08:34:56Z</time>
      </trkpt>
      <trkpt lat="42.99849" lon="-0.67921">
        <ele>1134.1</ele>
        <time>2015-02-19T08:35:14Z</time>
      </trkpt>
      <trkpt lat="42.99841" lon="-0.67928">
        <ele>1138.2</ele>
        <time>2015-02-19T08:35:29Z</time>
      </trkpt>
      <trkpt lat="42.99834" lon="-0.67937">
        <ele>1141.7</ele>
        <time>2015-02-19T08:35:43Z</time>
      </trkpt>
      <trkpt lat="42.99826" lon="-0.67945">
        <ele>1144.6</ele>
        <time>2015-02-19T08:36:01Z</time>
      </trkpt>
      <trkpt lat="42.99819" lon="-0.67952">
        <ele>1147.6</ele>
        <time>2015-02-19T08:36:12Z</time>
      </trkpt>
      <trkpt lat="42.99812" lon="-0.67961">
        <ele>1150.6</ele>
        <time>2015-02-19T08:36:26Z</time>
      </trkpt>
      <trkpt lat="42.99805" lon="-0.67969">
        <ele>1154.5</ele>
        <time>2015-02-19T08:36:51Z</time>
      </trkpt>
      <trkpt lat="42.99798" lon="-0.67977">
        <ele>1158.6</ele>
        <time>2015-02-19T08:37:07Z</time>
      </trkpt>
      <trkpt lat="42.99791" lon="-0.67985">
        <ele>1163</ele>
        <time>2015-02-19T08:37:27Z</time>
      </trkpt>
      <trkpt lat="42.99782" lon="-0.6799">
        <ele>1168.4</ele>
        <time>2015-02-19T08:37:38Z</time>
      </trkpt>
      <trkpt lat="42.99773" lon="-0.67995">
        <ele>1173.3</ele>
        <time>2015-02-19T08:37:50Z</time>
      </trkpt>
      <trkpt lat="42.99765" lon="-0.68001">
        <ele>1179</ele>
        <time>2015-02-19T08:38:05Z</time>
      </trkpt>
      <trkpt lat="42.99758" lon="-0.6801">
        <ele>1184.8</ele>
        <time>2015-02-19T08:38:36Z</time>
      </trkpt>
      <trkpt lat="42.99749" lon="-0.68012">
        <ele>1189.9</ele>
        <time>2015-02-19T08:38:52Z</time>
      </trkpt>
      <trkpt lat="42.9974" lon="-0.68012">
        <ele>1191.1</ele>
        <time>2015-02-19T08:39:10Z</time>
      </trkpt>
      <trkpt lat="42.99735" lon="-0.68023">
        <ele>1194</ele>
        <time>2015-02-19T08:39:28Z</time>
      </trkpt>
      <trkpt lat="42.99729" lon="-0.68033">
        <ele>1197.2</ele>
        <time>2015-02-19T08:39:44Z</time>
      </trkpt>
      <trkpt lat="42.99723" lon="-0.68044">
        <ele>1200.4</ele>
        <time>2015-02-19T08:39:59Z</time>
      </trkpt>
      <trkpt lat="42.99721" lon="-0.68057">
        <ele>1203.9</ele>
        <time>2015-02-19T08:40:18Z</time>
      </trkpt>
      <trkpt lat="42.99721" lon="-0.6807">
        <ele>1207.1</ele>
        <time>2015-02-19T08:40:31Z</time>
      </trkpt>
      <trkpt lat="42.99718" lon="-0.68082">
        <ele>1210.4</ele>
        <time>2015-02-19T08:40:45Z</time>
      </trkpt>
      <trkpt lat="42.99719" lon="-0.68095">
        <ele>1210.9</ele>
        <time>2015-02-19T08:41:57Z</time>
      </trkpt>
      <trkpt lat="42.99722" lon="-0.68108">
        <ele>1210.5</ele>
        <time>2015-02-19T08:42:10Z</time>
      </trkpt>
      <trkpt lat="42.99722" lon="-0.6812">
        <ele>1210.9</ele>
        <time>2015-02-19T08:42:23Z</time>
      </trkpt>
      <trkpt lat="42.99716" lon="-0.6813">
        <ele>1212.4</ele>
        <time>2015-02-19T08:42:36Z</time>
      </trkpt>
      <trkpt lat="42.99711" lon="-0.68141">
        <ele>1214</ele>
        <time>2015-02-19T08:42:53Z</time>
      </trkpt>
      <trkpt lat="42.99705" lon="-0.68151">
        <ele>1215.9</ele>
        <time>2015-02-19T08:43:06Z</time>
      </trkpt>
      <trkpt lat="42.99698" lon="-0.6816">
        <ele>1218.1</ele>
        <time>2015-02-19T08:43:20Z</time>
      </trkpt>
      <trkpt lat="42.99692" lon="-0.6817">
        <ele>1219.4</ele>
        <time>2015-02-19T08:43:34Z</time>
      </trkpt>
      <trkpt lat="42.99685" lon="-0.6818">
        <ele>1220.5</ele>
        <time>2015-02-19T08:43:46Z</time>
      </trkpt>
      <trkpt lat="42.99679" lon="-0.6819">
        <ele>1221.5</ele>
        <time>2015-02-19T08:43:54Z</time>
      </trkpt>
      <trkpt lat="42.99675" lon="-0.68201">
        <ele>1222.1</ele>
        <time>2015-02-19T08:44:03Z</time>
      </trkpt>
      <trkpt lat="42.99673" lon="-0.68213">
        <ele>1221.8</ele>
        <time>2015-02-19T08:44:12Z</time>
      </trkpt>
      <trkpt lat="42.9967" lon="-0.68225">
        <ele>1222.8</ele>
        <time>2015-02-19T08:44:25Z</time>
      </trkpt>
      <trkpt lat="42.99663" lon="-0.68234">
        <ele>1224.1</ele>
        <time>2015-02-19T08:44:38Z</time>
      </trkpt>
      <trkpt lat="42.99656" lon="-0.68243">
        <ele>1224.7</ele>
        <time>2015-02-19T08:44:48Z</time>
      </trkpt>
      <trkpt lat="42.99652" lon="-0.68257">
        <ele>1224</ele>
        <time>2015-02-19T08:44:57Z</time>
      </trkpt>
      <trkpt lat="42.99649" lon="-0.68269">
        <ele>1222.3</ele>
        <time>2015-02-19T08:45:03Z</time>
      </trkpt>
      <trkpt lat="42.99646" lon="-0.68283">
        <ele>1220.8</ele>
        <time>2015-02-19T08:45:10Z</time>
      </trkpt>
      <trkpt lat="42.99642" lon="-0.68294">
        <ele>1219.8</ele>
        <time>2015-02-19T08:45:16Z</time>
      </trkpt>
      <trkpt lat="42.99638" lon="-0.68307">
        <ele>1219</ele>
        <time>2015-02-19T08:45:23Z</time>
      </trkpt>
      <trkpt lat="42.99634" lon="-0.6832">
        <ele>1218.5</ele>
        <time>2015-02-19T08:45:31Z</time>
      </trkpt>
      <trkpt lat="42.99629" lon="-0.68331">
        <ele>1218.5</ele>
        <time>2015-02-19T08:45:39Z</time>
      </trkpt>
      <trkpt lat="42.99625" lon="-0.68342">
        <ele>1218.2</ele>
        <time>2015-02-19T08:45:48Z</time>
      </trkpt>
      <trkpt lat="42.99621" lon="-0.68353">
        <ele>1217.6</ele>
        <time>2015-02-19T08:46:01Z</time>
      </trkpt>
      <trkpt lat="42.99616" lon="-0.68364">
        <ele>1217.5</ele>
        <time>2015-02-19T08:46:12Z</time>
      </trkpt>
      <trkpt lat="42.99611" lon="-0.68375">
        <ele>1218</ele>
        <time>2015-02-19T08:46:24Z</time>
      </trkpt>
      <trkpt lat="42.99609" lon="-0.68388">
        <ele>1216.4</ele>
        <time>2015-02-19T08:46:41Z</time>
      </trkpt>
      <trkpt lat="42.99603" lon="-0.68398">
        <ele>1217.6</ele>
        <time>2015-02-19T08:46:50Z</time>
      </trkpt>
      <trkpt lat="42.99597" lon="-0.68407">
        <ele>1219.4</ele>
        <time>2015-02-19T08:47:06Z</time>
      </trkpt>
      <trkpt lat="42.99591" lon="-0.68417">
        <ele>1220.6</ele>
        <time>2015-02-19T08:47:18Z</time>
      </trkpt>
      <trkpt lat="42.99584" lon="-0.68427">
        <ele>1221.9</ele>
        <time>2015-02-19T08:47:32Z</time>
      </trkpt>
      <trkpt lat="42.9958" lon="-0.68438">
        <ele>1221</ele>
        <time>2015-02-19T08:47:53Z</time>
      </trkpt>
      <trkpt lat="42.99574" lon="-0.68448">
        <ele>1220.5</ele>
        <time>2015-02-19T08:48:09Z</time>
      </trkpt>
      <trkpt lat="42.99567" lon="-0.68457">
        <ele>1221.7</ele>
        <time>2015-02-19T08:48:27Z</time>
      </trkpt>
      <trkpt lat="42.99558" lon="-0.6846">
        <ele>1224.9</ele>
        <time>2015-02-19T08:48:43Z</time>
      </trkpt>
      <trkpt lat="42.99552" lon="-0.68469">
        <ele>1226.8</ele>
        <time>2015-02-19T08:49:14Z</time>
      </trkpt>
      <trkpt lat="42.99549" lon="-0.68481">
        <ele>1226</ele>
        <time>2015-02-19T08:49:26Z</time>
      </trkpt>
      <trkpt lat="42.99542" lon="-0.68487">
        <ele>1229.5</ele>
        <time>2015-02-19T08:49:49Z</time>
      </trkpt>
      <trkpt lat="42.99533" lon="-0.68494">
        <ele>1233.4</ele>
        <time>2015-02-19T08:50:12Z</time>
      </trkpt>
      <trkpt lat="42.99527" lon="-0.68503">
        <ele>1236.2</ele>
        <time>2015-02-19T08:50:38Z</time>
      </trkpt>
      <trkpt lat="42.99521" lon="-0.68512">
        <ele>1239.5</ele>
        <time>2015-02-19T08:51:02Z</time>
      </trkpt>
      <trkpt lat="42.99514" lon="-0.6852">
        <ele>1243.6</ele>
        <time>2015-02-19T08:51:30Z</time>
      </trkpt>
      <trkpt lat="42.99508" lon="-0.6853">
        <ele>1247.3</ele>
        <time>2015-02-19T08:51:51Z</time>
      </trkpt>
      <trkpt lat="42.99499" lon="-0.68531">
        <ele>1252.6</ele>
        <time>2015-02-19T08:52:14Z</time>
      </trkpt>
      <trkpt lat="42.99491" lon="-0.68523">
        <ele>1256.2</ele>
        <time>2015-02-19T08:52:26Z</time>
      </trkpt>
      <trkpt lat="42.99484" lon="-0.6853">
        <ele>1259.8</ele>
        <time>2015-02-19T08:53:06Z</time>
      </trkpt>
      <trkpt lat="42.99475" lon="-0.68535">
        <ele>1264</ele>
        <time>2015-02-19T08:53:28Z</time>
      </trkpt>
      <trkpt lat="42.99464" lon="-0.68537">
        <ele>1269.2</ele>
        <time>2015-02-19T08:53:39Z</time>
      </trkpt>
      <trkpt lat="42.99459" lon="-0.68547">
        <ele>1271.7</ele>
        <time>2015-02-19T08:53:56Z</time>
      </trkpt>
      <trkpt lat="42.9945" lon="-0.68553">
        <ele>1275.7</ele>
        <time>2015-02-19T08:54:11Z</time>
      </trkpt>
      <trkpt lat="42.99441" lon="-0.68557">
        <ele>1280.1</ele>
        <time>2015-02-19T08:54:24Z</time>
      </trkpt>
      <trkpt lat="42.99432" lon="-0.68556">
        <ele>1284.7</ele>
        <time>2015-02-19T08:54:47Z</time>
      </trkpt>
      <trkpt lat="42.99423" lon="-0.68553">
        <ele>1288.9</ele>
        <time>2015-02-19T08:54:59Z</time>
      </trkpt>
      <trkpt lat="42.99416" lon="-0.68544">
        <ele>1292.1</ele>
        <time>2015-02-19T08:55:18Z</time>
      </trkpt>
      <trkpt lat="42.99408" lon="-0.6855">
        <ele>1295.2</ele>
        <time>2015-02-19T08:55:42Z</time>
      </trkpt>
      <trkpt lat="42.99399" lon="-0.68548">
        <ele>1298.4</ele>
        <time>2015-02-19T08:55:57Z</time>
      </trkpt>
      <trkpt lat="42.99391" lon="-0.68541">
        <ele>1301.3</ele>
        <time>2015-02-19T08:56:17Z</time>
      </trkpt>
      <trkpt lat="42.99384" lon="-0.6855">
        <ele>1303.9</ele>
        <time>2015-02-19T08:56:35Z</time>
      </trkpt>
      <trkpt lat="42.99378" lon="-0.6856">
        <ele>1306</ele>
        <time>2015-02-19T08:56:56Z</time>
      </trkpt>
      <trkpt lat="42.99369" lon="-0.68559">
        <ele>1309.2</ele>
        <time>2015-02-19T08:57:14Z</time>
      </trkpt>
      <trkpt lat="42.9936" lon="-0.68562">
        <ele>1312.6</ele>
        <time>2015-02-19T08:58:10Z</time>
      </trkpt>
      <trkpt lat="42.9937" lon="-0.68557">
        <ele>1309.2</ele>
        <time>2015-02-19T08:59:19Z</time>
      </trkpt>
      <trkpt lat="42.99374" lon="-0.68569">
        <ele>1307.8</ele>
        <time>2015-02-19T09:01:09Z</time>
      </trkpt>
      <trkpt lat="42.9938" lon="-0.68578">
        <ele>1305.6</ele>
        <time>2015-02-19T09:01:26Z</time>
      </trkpt>
      <trkpt lat="42.99376" lon="-0.68566">
        <ele>1306.8</ele>
        <time>2015-02-19T09:02:52Z</time>
      </trkpt>
      <trkpt lat="42.99383" lon="-0.68557">
        <ele>1304.3</ele>
        <time>2015-02-19T09:03:16Z</time>
      </trkpt>
      <trkpt lat="42.99373" lon="-0.68556">
        <ele>1307.8</ele>
        <time>2015-02-19T09:04:04Z</time>
      </trkpt>
      <trkpt lat="42.99365" lon="-0.6855">
        <ele>1310.7</ele>
        <time>2015-02-19T09:04:14Z</time>
      </trkpt>
      <trkpt lat="42.99357" lon="-0.68544">
        <ele>1313.5</ele>
        <time>2015-02-19T09:04:30Z</time>
      </trkpt>
      <trkpt lat="42.99349" lon="-0.68549">
        <ele>1316.6</ele>
        <time>2015-02-19T09:04:49Z</time>
      </trkpt>
      <trkpt lat="42.99341" lon="-0.68555">
        <ele>1319.6</ele>
        <time>2015-02-19T09:05:10Z</time>
      </trkpt>
      <trkpt lat="42.99333" lon="-0.68549">
        <ele>1322.4</ele>
        <time>2015-02-19T09:05:36Z</time>
      </trkpt>
      <trkpt lat="42.9933" lon="-0.68561">
        <ele>1323.5</ele>
        <time>2015-02-19T09:05:48Z</time>
      </trkpt>
      <trkpt lat="42.9932" lon="-0.68563">
        <ele>1326.2</ele>
        <time>2015-02-19T09:05:59Z</time>
      </trkpt>
      <trkpt lat="42.99311" lon="-0.68565">
        <ele>1329</ele>
        <time>2015-02-19T09:06:22Z</time>
      </trkpt>
      <trkpt lat="42.99302" lon="-0.68562">
        <ele>1331.5</ele>
        <time>2015-02-19T09:06:31Z</time>
      </trkpt>
      <trkpt lat="42.99293" lon="-0.68561">
        <ele>1334</ele>
        <time>2015-02-19T09:06:41Z</time>
      </trkpt>
      <trkpt lat="42.99283" lon="-0.68559">
        <ele>1336.6</ele>
        <time>2015-02-19T09:07:02Z</time>
      </trkpt>
      <trkpt lat="42.99275" lon="-0.68565">
        <ele>1339.5</ele>
        <time>2015-02-19T09:07:23Z</time>
      </trkpt>
      <trkpt lat="42.99267" lon="-0.68572">
        <ele>1342.4</ele>
        <time>2015-02-19T09:07:36Z</time>
      </trkpt>
      <trkpt lat="42.99258" lon="-0.68572">
        <ele>1345.4</ele>
        <time>2015-02-19T09:07:48Z</time>
      </trkpt>
      <trkpt lat="42.99252" lon="-0.68582">
        <ele>1348.1</ele>
        <time>2015-02-19T09:08:07Z</time>
      </trkpt>
      <trkpt lat="42.99245" lon="-0.6859">
        <ele>1349.3</ele>
        <time>2015-02-19T09:08:19Z</time>
      </trkpt>
      <trkpt lat="42.99236" lon="-0.68596">
        <ele>1351.1</ele>
        <time>2015-02-19T09:08:28Z</time>
      </trkpt>
      <trkpt lat="42.99226" lon="-0.68599">
        <ele>1353.6</ele>
        <time>2015-02-19T09:08:38Z</time>
      </trkpt>
      <trkpt lat="42.99217" lon="-0.68599">
        <ele>1356.4</ele>
        <time>2015-02-19T09:08:50Z</time>
      </trkpt>
      <trkpt lat="42.9921" lon="-0.68591">
        <ele>1359.7</ele>
        <time>2015-02-19T09:09:00Z</time>
      </trkpt>
      <trkpt lat="42.992" lon="-0.68592">
        <ele>1362.4</ele>
        <time>2015-02-19T09:09:19Z</time>
      </trkpt>
      <trkpt lat="42.99192" lon="-0.68597">
        <ele>1364.1</ele>
        <time>2015-02-19T09:09:34Z</time>
      </trkpt>
      <trkpt lat="42.99182" lon="-0.68599">
        <ele>1366.8</ele>
        <time>2015-02-19T09:10:00Z</time>
      </trkpt>
      <trkpt lat="42.99172" lon="-0.68598">
        <ele>1370</ele>
        <time>2015-02-19T09:10:10Z</time>
      </trkpt>
      <trkpt lat="42.99163" lon="-0.68593">
        <ele>1373.2</ele>
        <time>2015-02-19T09:10:20Z</time>
      </trkpt>
      <trkpt lat="42.99155" lon="-0.68587">
        <ele>1376.3</ele>
        <time>2015-02-19T09:10:35Z</time>
      </trkpt>
      <trkpt lat="42.99147" lon="-0.68582">
        <ele>1378.7</ele>
        <time>2015-02-19T09:10:57Z</time>
      </trkpt>
      <trkpt lat="42.99138" lon="-0.68578">
        <ele>1380.2</ele>
        <time>2015-02-19T09:11:13Z</time>
      </trkpt>
      <trkpt lat="42.9913" lon="-0.68574">
        <ele>1381.5</ele>
        <time>2015-02-19T09:11:26Z</time>
      </trkpt>
      <trkpt lat="42.99121" lon="-0.6857">
        <ele>1383</ele>
        <time>2015-02-19T09:11:38Z</time>
      </trkpt>
      <trkpt lat="42.99111" lon="-0.68571">
        <ele>1385.6</ele>
        <time>2015-02-19T09:11:53Z</time>
      </trkpt>
      <trkpt lat="42.99103" lon="-0.68577">
        <ele>1388.9</ele>
        <time>2015-02-19T09:12:10Z</time>
      </trkpt>
      <trkpt lat="42.99095" lon="-0.68584">
        <ele>1392</ele>
        <time>2015-02-19T09:12:27Z</time>
      </trkpt>
      <trkpt lat="42.99086" lon="-0.6858">
        <ele>1393.8</ele>
        <time>2015-02-19T09:12:48Z</time>
      </trkpt>
      <trkpt lat="42.99077" lon="-0.68582">
        <ele>1396.6</ele>
        <time>2015-02-19T09:13:07Z</time>
      </trkpt>
      <trkpt lat="42.99068" lon="-0.68581">
        <ele>1399.3</ele>
        <time>2015-02-19T09:13:21Z</time>
      </trkpt>
      <trkpt lat="42.99061" lon="-0.68574">
        <ele>1399.8</ele>
        <time>2015-02-19T09:14:04Z</time>
      </trkpt>
      <trkpt lat="42.99051" lon="-0.68577">
        <ele>1403</ele>
        <time>2015-02-19T09:14:18Z</time>
      </trkpt>
      <trkpt lat="42.99042" lon="-0.68578">
        <ele>1405.9</ele>
        <time>2015-02-19T09:14:33Z</time>
      </trkpt>
      <trkpt lat="42.99035" lon="-0.68586">
        <ele>1408.8</ele>
        <time>2015-02-19T09:14:57Z</time>
      </trkpt>
      <trkpt lat="42.99026" lon="-0.68582">
        <ele>1411.3</ele>
        <time>2015-02-19T09:15:18Z</time>
      </trkpt>
      <trkpt lat="42.99017" lon="-0.68586">
        <ele>1414</ele>
        <time>2015-02-19T09:15:36Z</time>
      </trkpt>
      <trkpt lat="42.99008" lon="-0.68583">
        <ele>1416.7</ele>
        <time>2015-02-19T09:15:50Z</time>
      </trkpt>
      <trkpt lat="42.98999" lon="-0.68578">
        <ele>1418.7</ele>
        <time>2015-02-19T09:16:03Z</time>
      </trkpt>
      <trkpt lat="42.9899" lon="-0.68576">
        <ele>1421.8</ele>
        <time>2015-02-19T09:16:28Z</time>
      </trkpt>
      <trkpt lat="42.98979" lon="-0.68578">
        <ele>1425.8</ele>
        <time>2015-02-19T09:16:44Z</time>
      </trkpt>
      <trkpt lat="42.98969" lon="-0.68579">
        <ele>1429.7</ele>
        <time>2015-02-19T09:16:55Z</time>
      </trkpt>
      <trkpt lat="42.98959" lon="-0.68579">
        <ele>1433.4</ele>
        <time>2015-02-19T09:17:13Z</time>
      </trkpt>
      <trkpt lat="42.9895" lon="-0.68573">
        <ele>1435.8</ele>
        <time>2015-02-19T09:17:24Z</time>
      </trkpt>
      <trkpt lat="42.98941" lon="-0.68572">
        <ele>1438.7</ele>
        <time>2015-02-19T09:17:32Z</time>
      </trkpt>
      <trkpt lat="42.98932" lon="-0.6857">
        <ele>1441.7</ele>
        <time>2015-02-19T09:17:42Z</time>
      </trkpt>
      <trkpt lat="42.98922" lon="-0.68573">
        <ele>1445.8</ele>
        <time>2015-02-19T09:18:00Z</time>
      </trkpt>
      <trkpt lat="42.98912" lon="-0.68571">
        <ele>1448.3</ele>
        <time>2015-02-19T09:18:14Z</time>
      </trkpt>
      <trkpt lat="42.98903" lon="-0.68569">
        <ele>1449.6</ele>
        <time>2015-02-19T09:18:22Z</time>
      </trkpt>
      <trkpt lat="42.98893" lon="-0.68571">
        <ele>1451.5</ele>
        <time>2015-02-19T09:18:30Z</time>
      </trkpt>
      <trkpt lat="42.98884" lon="-0.68572">
        <ele>1453</ele>
        <time>2015-02-19T09:18:39Z</time>
      </trkpt>
      <trkpt lat="42.98874" lon="-0.68571">
        <ele>1454.6</ele>
        <time>2015-02-19T09:18:48Z</time>
      </trkpt>
      <trkpt lat="42.98864" lon="-0.68569">
        <ele>1455.9</ele>
        <time>2015-02-19T09:18:55Z</time>
      </trkpt>
      <trkpt lat="42.98855" lon="-0.68566">
        <ele>1456.5</ele>
        <time>2015-02-19T09:19:03Z</time>
      </trkpt>
      <trkpt lat="42.98846" lon="-0.68566">
        <ele>1458.1</ele>
        <time>2015-02-19T09:19:12Z</time>
      </trkpt>
      <trkpt lat="42.98836" lon="-0.68566">
        <ele>1459.7</ele>
        <time>2015-02-19T09:19:20Z</time>
      </trkpt>
      <trkpt lat="42.98827" lon="-0.68567">
        <ele>1460.8</ele>
        <time>2015-02-19T09:19:29Z</time>
      </trkpt>
      <trkpt lat="42.98818" lon="-0.68567">
        <ele>1461.4</ele>
        <time>2015-02-19T09:21:23Z</time>
      </trkpt>
      <trkpt lat="42.98808" lon="-0.68565">
        <ele>1461.7</ele>
        <time>2015-02-19T09:24:20Z</time>
      </trkpt>
      <trkpt lat="42.988" lon="-0.68568">
        <ele>1462.5</ele>
        <time>2015-02-19T09:24:28Z</time>
      </trkpt>
      <trkpt lat="42.98791" lon="-0.68566">
        <ele>1462.8</ele>
        <time>2015-02-19T09:24:38Z</time>
      </trkpt>
      <trkpt lat="42.98782" lon="-0.68568">
        <ele>1463.6</ele>
        <time>2015-02-19T09:24:47Z</time>
      </trkpt>
      <trkpt lat="42.98772" lon="-0.68569">
        <ele>1464.4</ele>
        <time>2015-02-19T09:24:58Z</time>
      </trkpt>
      <trkpt lat="42.98763" lon="-0.68569">
        <ele>1465</ele>
        <time>2015-02-19T09:25:06Z</time>
      </trkpt>
      <trkpt lat="42.98754" lon="-0.68568">
        <ele>1465.5</ele>
        <time>2015-02-19T09:25:18Z</time>
      </trkpt>
      <trkpt lat="42.98745" lon="-0.68572">
        <ele>1466.4</ele>
        <time>2015-02-19T09:25:28Z</time>
      </trkpt>
      <trkpt lat="42.98735" lon="-0.68572">
        <ele>1466.4</ele>
        <time>2015-02-19T09:25:38Z</time>
      </trkpt>
      <trkpt lat="42.98725" lon="-0.68573">
        <ele>1466.4</ele>
        <time>2015-02-19T09:25:51Z</time>
      </trkpt>
      <trkpt lat="42.98716" lon="-0.68571">
        <ele>1466.2</ele>
        <time>2015-02-19T09:26:03Z</time>
      </trkpt>
      <trkpt lat="42.98707" lon="-0.68569">
        <ele>1466</ele>
        <time>2015-02-19T09:26:13Z</time>
      </trkpt>
      <trkpt lat="42.98697" lon="-0.68569">
        <ele>1465.8</ele>
        <time>2015-02-19T09:26:21Z</time>
      </trkpt>
      <trkpt lat="42.98688" lon="-0.6857">
        <ele>1466</ele>
        <time>2015-02-19T09:26:29Z</time>
      </trkpt>
      <trkpt lat="42.98679" lon="-0.68574">
        <ele>1466.6</ele>
        <time>2015-02-19T09:26:36Z</time>
      </trkpt>
      <trkpt lat="42.98671" lon="-0.6858">
        <ele>1467.6</ele>
        <time>2015-02-19T09:26:47Z</time>
      </trkpt>
      <trkpt lat="42.98661" lon="-0.68583">
        <ele>1474.2</ele>
        <time>2015-02-19T09:26:57Z</time>
      </trkpt>
      <trkpt lat="42.98651" lon="-0.68583">
        <ele>1475</ele>
        <time>2015-02-19T09:27:09Z</time>
      </trkpt>
      <trkpt lat="42.98642" lon="-0.68587">
        <ele>1475.7</ele>
        <time>2015-02-19T09:27:19Z</time>
      </trkpt>
      <trkpt lat="42.98632" lon="-0.6859">
        <ele>1476.1</ele>
        <time>2015-02-19T09:27:28Z</time>
      </trkpt>
      <trkpt lat="42.98623" lon="-0.68592">
        <ele>1476.5</ele>
        <time>2015-02-19T09:27:37Z</time>
      </trkpt>
      <trkpt lat="42.98614" lon="-0.68596">
        <ele>1476.2</ele>
        <time>2015-02-19T09:27:47Z</time>
      </trkpt>
      <trkpt lat="42.98606" lon="-0.68599">
        <ele>1476.1</ele>
        <time>2015-02-19T09:27:57Z</time>
      </trkpt>
      <trkpt lat="42.98596" lon="-0.68603">
        <ele>1476</ele>
        <time>2015-02-19T09:28:06Z</time>
      </trkpt>
      <trkpt lat="42.98587" lon="-0.68607">
        <ele>1476.6</ele>
        <time>2015-02-19T09:28:16Z</time>
      </trkpt>
      <trkpt lat="42.98578" lon="-0.6861">
        <ele>1477.1</ele>
        <time>2015-02-19T09:28:26Z</time>
      </trkpt>
      <trkpt lat="42.98569" lon="-0.68614">
        <ele>1477.7</ele>
        <time>2015-02-19T09:28:37Z</time>
      </trkpt>
      <trkpt lat="42.9856" lon="-0.68618">
        <ele>1478.1</ele>
        <time>2015-02-19T09:28:50Z</time>
      </trkpt>
      <trkpt lat="42.9855" lon="-0.6862">
        <ele>1478.7</ele>
        <time>2015-02-19T09:29:00Z</time>
      </trkpt>
      <trkpt lat="42.98541" lon="-0.68624">
        <ele>1479.3</ele>
        <time>2015-02-19T09:29:08Z</time>
      </trkpt>
      <trkpt lat="42.98532" lon="-0.68628">
        <ele>1480.1</ele>
        <time>2015-02-19T09:29:20Z</time>
      </trkpt>
      <trkpt lat="42.98524" lon="-0.68634">
        <ele>1481.3</ele>
        <time>2015-02-19T09:29:33Z</time>
      </trkpt>
      <trkpt lat="42.98515" lon="-0.68638">
        <ele>1482.7</ele>
        <time>2015-02-19T09:29:46Z</time>
      </trkpt>
      <trkpt lat="42.98506" lon="-0.68644">
        <ele>1484.3</ele>
        <time>2015-02-19T09:29:57Z</time>
      </trkpt>
      <trkpt lat="42.98498" lon="-0.68649">
        <ele>1485.6</ele>
        <time>2015-02-19T09:30:09Z</time>
      </trkpt>
      <trkpt lat="42.9849" lon="-0.68654">
        <ele>1486.9</ele>
        <time>2015-02-19T09:30:22Z</time>
      </trkpt>
      <trkpt lat="42.98481" lon="-0.68657">
        <ele>1488.8</ele>
        <time>2015-02-19T09:30:35Z</time>
      </trkpt>
      <trkpt lat="42.98472" lon="-0.68661">
        <ele>1490.3</ele>
        <time>2015-02-19T09:30:47Z</time>
      </trkpt>
      <trkpt lat="42.98464" lon="-0.68666">
        <ele>1492.1</ele>
        <time>2015-02-19T09:31:02Z</time>
      </trkpt>
      <trkpt lat="42.98455" lon="-0.6867">
        <ele>1493.7</ele>
        <time>2015-02-19T09:31:15Z</time>
      </trkpt>
      <trkpt lat="42.98446" lon="-0.68675">
        <ele>1496.2</ele>
        <time>2015-02-19T09:31:32Z</time>
      </trkpt>
      <trkpt lat="42.98438" lon="-0.68681">
        <ele>1498.3</ele>
        <time>2015-02-19T09:31:46Z</time>
      </trkpt>
      <trkpt lat="42.98429" lon="-0.68686">
        <ele>1499.8</ele>
        <time>2015-02-19T09:31:59Z</time>
      </trkpt>
      <trkpt lat="42.9842" lon="-0.68691">
        <ele>1501.5</ele>
        <time>2015-02-19T09:32:12Z</time>
      </trkpt>
      <trkpt lat="42.98412" lon="-0.68698">
        <ele>1503.4</ele>
        <time>2015-02-19T09:32:26Z</time>
      </trkpt>
      <trkpt lat="42.98403" lon="-0.68704">
        <ele>1505.3</ele>
        <time>2015-02-19T09:32:41Z</time>
      </trkpt>
      <trkpt lat="42.98395" lon="-0.6871">
        <ele>1506.6</ele>
        <time>2015-02-19T09:32:55Z</time>
      </trkpt>
      <trkpt lat="42.98387" lon="-0.68717">
        <ele>1508.2</ele>
        <time>2015-02-19T09:33:07Z</time>
      </trkpt>
      <trkpt lat="42.98379" lon="-0.68722">
        <ele>1509.4</ele>
        <time>2015-02-19T09:33:19Z</time>
      </trkpt>
      <trkpt lat="42.98371" lon="-0.68729">
        <ele>1510.7</ele>
        <time>2015-02-19T09:33:34Z</time>
      </trkpt>
      <trkpt lat="42.98363" lon="-0.68737">
        <ele>1512.3</ele>
        <time>2015-02-19T09:33:47Z</time>
      </trkpt>
      <trkpt lat="42.98355" lon="-0.68744">
        <ele>1513.3</ele>
        <time>2015-02-19T09:33:59Z</time>
      </trkpt>
      <trkpt lat="42.98348" lon="-0.68752">
        <ele>1514.6</ele>
        <time>2015-02-19T09:34:11Z</time>
      </trkpt>
      <trkpt lat="42.98341" lon="-0.68761">
        <ele>1515.6</ele>
        <time>2015-02-19T09:34:24Z</time>
      </trkpt>
      <trkpt lat="42.98335" lon="-0.68769">
        <ele>1516.9</ele>
        <time>2015-02-19T09:34:38Z</time>
      </trkpt>
      <trkpt lat="42.98331" lon="-0.68781">
        <ele>1518</ele>
        <time>2015-02-19T09:34:51Z</time>
      </trkpt>
      <trkpt lat="42.98325" lon="-0.68792">
        <ele>1519.1</ele>
        <time>2015-02-19T09:35:03Z</time>
      </trkpt>
      <trkpt lat="42.98318" lon="-0.688">
        <ele>1520.3</ele>
        <time>2015-02-19T09:35:15Z</time>
      </trkpt>
      <trkpt lat="42.98312" lon="-0.6881">
        <ele>1521.7</ele>
        <time>2015-02-19T09:35:27Z</time>
      </trkpt>
      <trkpt lat="42.98304" lon="-0.68818">
        <ele>1523.1</ele>
        <time>2015-02-19T09:35:40Z</time>
      </trkpt>
      <trkpt lat="42.98297" lon="-0.68826">
        <ele>1524.6</ele>
        <time>2015-02-19T09:35:51Z</time>
      </trkpt>
      <trkpt lat="42.98289" lon="-0.68832">
        <ele>1525.9</ele>
        <time>2015-02-19T09:36:04Z</time>
      </trkpt>
      <trkpt lat="42.98281" lon="-0.68839">
        <ele>1526.9</ele>
        <time>2015-02-19T09:36:15Z</time>
      </trkpt>
      <trkpt lat="42.98274" lon="-0.68847">
        <ele>1527.1</ele>
        <time>2015-02-19T09:36:27Z</time>
      </trkpt>
      <trkpt lat="42.98265" lon="-0.68853">
        <ele>1529</ele>
        <time>2015-02-19T09:36:41Z</time>
      </trkpt>
      <trkpt lat="42.98257" lon="-0.68862">
        <ele>1529.9</ele>
        <time>2015-02-19T09:36:50Z</time>
      </trkpt>
      <trkpt lat="42.98249" lon="-0.68867">
        <ele>1530.5</ele>
        <time>2015-02-19T09:36:58Z</time>
      </trkpt>
      <trkpt lat="42.9824" lon="-0.68873">
        <ele>1531.1</ele>
        <time>2015-02-19T09:37:09Z</time>
      </trkpt>
      <trkpt lat="42.98232" lon="-0.68878">
        <ele>1531.5</ele>
        <time>2015-02-19T09:37:19Z</time>
      </trkpt>
      <trkpt lat="42.98223" lon="-0.68884">
        <ele>1532.4</ele>
        <time>2015-02-19T09:37:30Z</time>
      </trkpt>
      <trkpt lat="42.98215" lon="-0.68891">
        <ele>1533</ele>
        <time>2015-02-19T09:37:40Z</time>
      </trkpt>
      <trkpt lat="42.98207" lon="-0.68897">
        <ele>1533.9</ele>
        <time>2015-02-19T09:37:51Z</time>
      </trkpt>
      <trkpt lat="42.98199" lon="-0.68905">
        <ele>1534.8</ele>
        <time>2015-02-19T09:38:02Z</time>
      </trkpt>
      <trkpt lat="42.98191" lon="-0.68909">
        <ele>1535.4</ele>
        <time>2015-02-19T09:38:15Z</time>
      </trkpt>
      <trkpt lat="42.98182" lon="-0.68914">
        <ele>1536.4</ele>
        <time>2015-02-19T09:38:31Z</time>
      </trkpt>
      <trkpt lat="42.98173" lon="-0.68913">
        <ele>1537.8</ele>
        <time>2015-02-19T09:38:41Z</time>
      </trkpt>
      <trkpt lat="42.98163" lon="-0.68914">
        <ele>1539.1</ele>
        <time>2015-02-19T09:38:50Z</time>
      </trkpt>
      <trkpt lat="42.98155" lon="-0.6892">
        <ele>1539.9</ele>
        <time>2015-02-19T09:38:57Z</time>
      </trkpt>
      <trkpt lat="42.98146" lon="-0.68926">
        <ele>1540.4</ele>
        <time>2015-02-19T09:39:06Z</time>
      </trkpt>
      <trkpt lat="42.98138" lon="-0.68933">
        <ele>1541.3</ele>
        <time>2015-02-19T09:39:17Z</time>
      </trkpt>
      <trkpt lat="42.98129" lon="-0.68941">
        <ele>1542.3</ele>
        <time>2015-02-19T09:39:25Z</time>
      </trkpt>
      <trkpt lat="42.98121" lon="-0.68947">
        <ele>1543.4</ele>
        <time>2015-02-19T09:39:35Z</time>
      </trkpt>
      <trkpt lat="42.98113" lon="-0.68955">
        <ele>1543.9</ele>
        <time>2015-02-19T09:39:43Z</time>
      </trkpt>
      <trkpt lat="42.98104" lon="-0.68961">
        <ele>1544.3</ele>
        <time>2015-02-19T09:39:53Z</time>
      </trkpt>
      <trkpt lat="42.98096" lon="-0.68969">
        <ele>1545</ele>
        <time>2015-02-19T09:40:01Z</time>
      </trkpt>
      <trkpt lat="42.98088" lon="-0.68974">
        <ele>1546.2</ele>
        <time>2015-02-19T09:40:10Z</time>
      </trkpt>
      <trkpt lat="42.98079" lon="-0.68979">
        <ele>1546.5</ele>
        <time>2015-02-19T09:40:19Z</time>
      </trkpt>
      <trkpt lat="42.98071" lon="-0.68985">
        <ele>1546.7</ele>
        <time>2015-02-19T09:40:29Z</time>
      </trkpt>
      <trkpt lat="42.98062" lon="-0.68989">
        <ele>1548.2</ele>
        <time>2015-02-19T09:40:43Z</time>
      </trkpt>
      <trkpt lat="42.98052" lon="-0.68988">
        <ele>1549.4</ele>
        <time>2015-02-19T09:40:53Z</time>
      </trkpt>
      <trkpt lat="42.98043" lon="-0.6899">
        <ele>1549.6</ele>
        <time>2015-02-19T09:41:04Z</time>
      </trkpt>
      <trkpt lat="42.98034" lon="-0.68994">
        <ele>1550.1</ele>
        <time>2015-02-19T09:41:16Z</time>
      </trkpt>
      <trkpt lat="42.98024" lon="-0.68999">
        <ele>1550.7</ele>
        <time>2015-02-19T09:41:24Z</time>
      </trkpt>
      <trkpt lat="42.98015" lon="-0.69001">
        <ele>1551.3</ele>
        <time>2015-02-19T09:41:33Z</time>
      </trkpt>
      <trkpt lat="42.98005" lon="-0.69003">
        <ele>1551.8</ele>
        <time>2015-02-19T09:41:40Z</time>
      </trkpt>
      <trkpt lat="42.97995" lon="-0.69005">
        <ele>1552.3</ele>
        <time>2015-02-19T09:41:48Z</time>
      </trkpt>
      <trkpt lat="42.97986" lon="-0.69007">
        <ele>1552.6</ele>
        <time>2015-02-19T09:41:57Z</time>
      </trkpt>
      <trkpt lat="42.97977" lon="-0.69008">
        <ele>1552.7</ele>
        <time>2015-02-19T09:42:06Z</time>
      </trkpt>
      <trkpt lat="42.97968" lon="-0.69013">
        <ele>1552.7</ele>
        <time>2015-02-19T09:42:12Z</time>
      </trkpt>
      <trkpt lat="42.97959" lon="-0.69018">
        <ele>1552.3</ele>
        <time>2015-02-19T09:42:17Z</time>
      </trkpt>
      <trkpt lat="42.97951" lon="-0.69024">
        <ele>1552</ele>
        <time>2015-02-19T09:42:23Z</time>
      </trkpt>
      <trkpt lat="42.97942" lon="-0.6903">
        <ele>1552</ele>
        <time>2015-02-19T09:42:32Z</time>
      </trkpt>
      <trkpt lat="42.97935" lon="-0.69038">
        <ele>1551.8</ele>
        <time>2015-02-19T09:42:42Z</time>
      </trkpt>
      <trkpt lat="42.97929" lon="-0.69048">
        <ele>1551.6</ele>
        <time>2015-02-19T09:42:51Z</time>
      </trkpt>
      <trkpt lat="42.97925" lon="-0.69059">
        <ele>1551.3</ele>
        <time>2015-02-19T09:43:01Z</time>
      </trkpt>
      <trkpt lat="42.97919" lon="-0.69069">
        <ele>1551.3</ele>
        <time>2015-02-19T09:43:07Z</time>
      </trkpt>
      <trkpt lat="42.97913" lon="-0.69078">
        <ele>1551.3</ele>
        <time>2015-02-19T09:43:13Z</time>
      </trkpt>
      <trkpt lat="42.97904" lon="-0.69085">
        <ele>1551.1</ele>
        <time>2015-02-19T09:43:20Z</time>
      </trkpt>
      <trkpt lat="42.97896" lon="-0.69094">
        <ele>1550.7</ele>
        <time>2015-02-19T09:43:26Z</time>
      </trkpt>
      <trkpt lat="42.97887" lon="-0.69099">
        <ele>1550</ele>
        <time>2015-02-19T09:43:34Z</time>
      </trkpt>
      <trkpt lat="42.97878" lon="-0.69103">
        <ele>1549.8</ele>
        <time>2015-02-19T09:43:43Z</time>
      </trkpt>
      <trkpt lat="42.9787" lon="-0.6911">
        <ele>1549.5</ele>
        <time>2015-02-19T09:43:49Z</time>
      </trkpt>
      <trkpt lat="42.97867" lon="-0.69122">
        <ele>1548.3</ele>
        <time>2015-02-19T09:44:07Z</time>
      </trkpt>
      <trkpt lat="42.97861" lon="-0.69132">
        <ele>1549.3</ele>
        <time>2015-02-19T09:44:25Z</time>
      </trkpt>
      <trkpt lat="42.97854" lon="-0.6914">
        <ele>1549.8</ele>
        <time>2015-02-19T09:44:40Z</time>
      </trkpt>
      <trkpt lat="42.97844" lon="-0.6914">
        <ele>1550.8</ele>
        <time>2015-02-19T09:44:50Z</time>
      </trkpt>
      <trkpt lat="42.97838" lon="-0.69149">
        <ele>1551.9</ele>
        <time>2015-02-19T09:45:05Z</time>
      </trkpt>
      <trkpt lat="42.97837" lon="-0.69162">
        <ele>1554.4</ele>
        <time>2015-02-19T09:47:33Z</time>
      </trkpt>
      <trkpt lat="42.97837" lon="-0.69175">
        <ele>1555.9</ele>
        <time>2015-02-19T09:47:58Z</time>
      </trkpt>
      <trkpt lat="42.97845" lon="-0.69179">
        <ele>1556.4</ele>
        <time>2015-02-19T09:50:01Z</time>
      </trkpt>
      <trkpt lat="42.97838" lon="-0.69172">
        <ele>1558.1</ele>
        <time>2015-02-19T09:52:27Z</time>
      </trkpt>
      <trkpt lat="42.9784" lon="-0.6916">
        <ele>1558.7</ele>
        <time>2015-02-19T09:52:41Z</time>
      </trkpt>
      <trkpt lat="42.97836" lon="-0.69171">
        <ele>1560.6</ele>
        <time>2015-02-19T09:53:02Z</time>
      </trkpt>
      <trkpt lat="42.97845" lon="-0.69175">
        <ele>1561.7</ele>
        <time>2015-02-19T09:53:40Z</time>
      </trkpt>
      <trkpt lat="42.97852" lon="-0.69184">
        <ele>1561.3</ele>
        <time>2015-02-19T09:53:47Z</time>
      </trkpt>
      <trkpt lat="42.97843" lon="-0.69179">
        <ele>1559</ele>
        <time>2015-02-19T09:54:28Z</time>
      </trkpt>
      <trkpt lat="42.97838" lon="-0.69168">
        <ele>1559.6</ele>
        <time>2015-02-19T09:55:56Z</time>
      </trkpt>
      <trkpt lat="42.97848" lon="-0.69167">
        <ele>1557.7</ele>
        <time>2015-02-19T10:00:54Z</time>
      </trkpt>
      <trkpt lat="42.97854" lon="-0.69177">
        <ele>1557</ele>
        <time>2015-02-19T10:01:13Z</time>
      </trkpt>
      <trkpt lat="42.97846" lon="-0.69183">
        <ele>1556.5</ele>
        <time>2015-02-19T10:01:45Z</time>
      </trkpt>
      <trkpt lat="42.9784" lon="-0.69174">
        <ele>1556.5</ele>
        <time>2015-02-19T10:02:14Z</time>
      </trkpt>
      <trkpt lat="42.97846" lon="-0.69183">
        <ele>1558.5</ele>
        <time>2015-02-19T10:07:44Z</time>
      </trkpt>
      <trkpt lat="42.97847" lon="-0.69196">
        <ele>1563.9</ele>
        <time>2015-02-19T10:09:46Z</time>
      </trkpt>
      <trkpt lat="42.97851" lon="-0.69207">
        <ele>1562.5</ele>
        <time>2015-02-19T10:10:17Z</time>
      </trkpt>
      <trkpt lat="42.97858" lon="-0.69217">
        <ele>1562.5</ele>
        <time>2015-02-19T10:10:24Z</time>
      </trkpt>
      <trkpt lat="42.97865" lon="-0.69227">
        <ele>1562.7</ele>
        <time>2015-02-19T10:10:30Z</time>
      </trkpt>
      <trkpt lat="42.97872" lon="-0.69239">
        <ele>1562.6</ele>
        <time>2015-02-19T10:10:33Z</time>
      </trkpt>
      <trkpt lat="42.97875" lon="-0.69251">
        <ele>1563.1</ele>
        <time>2015-02-19T10:10:56Z</time>
      </trkpt>
      <trkpt lat="42.97879" lon="-0.69267">
        <ele>1563.3</ele>
        <time>2015-02-19T10:11:02Z</time>
      </trkpt>
      <trkpt lat="42.97882" lon="-0.6928">
        <ele>1563.1</ele>
        <time>2015-02-19T10:11:11Z</time>
      </trkpt>
      <trkpt lat="42.97882" lon="-0.69292">
        <ele>1563.7</ele>
        <time>2015-02-19T10:11:25Z</time>
      </trkpt>
      <trkpt lat="42.97882" lon="-0.69305">
        <ele>1566.1</ele>
        <time>2015-02-19T10:11:42Z</time>
      </trkpt>
      <trkpt lat="42.97886" lon="-0.69317">
        <ele>1568</ele>
        <time>2015-02-19T10:11:54Z</time>
      </trkpt>
      <trkpt lat="42.97886" lon="-0.69329">
        <ele>1568</ele>
        <time>2015-02-19T10:12:10Z</time>
      </trkpt>
      <trkpt lat="42.97877" lon="-0.69332">
        <ele>1567.8</ele>
        <time>2015-02-19T10:12:36Z</time>
      </trkpt>
      <trkpt lat="42.97867" lon="-0.69334">
        <ele>1567.6</ele>
        <time>2015-02-19T10:12:49Z</time>
      </trkpt>
      <trkpt lat="42.97864" lon="-0.69346">
        <ele>1569.5</ele>
        <time>2015-02-19T10:13:11Z</time>
      </trkpt>
      <trkpt lat="42.97859" lon="-0.69356">
        <ele>1571.3</ele>
        <time>2015-02-19T10:13:32Z</time>
      </trkpt>
      <trkpt lat="42.97849" lon="-0.69354">
        <ele>1573.4</ele>
        <time>2015-02-19T10:13:51Z</time>
      </trkpt>
      <trkpt lat="42.9784" lon="-0.69354">
        <ele>1575.4</ele>
        <time>2015-02-19T10:14:07Z</time>
      </trkpt>
      <trkpt lat="42.97835" lon="-0.69365">
        <ele>1580</ele>
        <time>2015-02-19T10:14:33Z</time>
      </trkpt>
      <trkpt lat="42.97839" lon="-0.69377">
        <ele>1580.4</ele>
        <time>2015-02-19T10:15:05Z</time>
      </trkpt>
      <trkpt lat="42.97837" lon="-0.69389">
        <ele>1581.1</ele>
        <time>2015-02-19T10:15:31Z</time>
      </trkpt>
      <trkpt lat="42.97836" lon="-0.69402">
        <ele>1583.7</ele>
        <time>2015-02-19T10:15:54Z</time>
      </trkpt>
      <trkpt lat="42.97832" lon="-0.69414">
        <ele>1586.2</ele>
        <time>2015-02-19T10:16:06Z</time>
      </trkpt>
      <trkpt lat="42.97832" lon="-0.69426">
        <ele>1588.6</ele>
        <time>2015-02-19T10:16:19Z</time>
      </trkpt>
      <trkpt lat="42.97829" lon="-0.69438">
        <ele>1590.3</ele>
        <time>2015-02-19T10:16:35Z</time>
      </trkpt>
      <trkpt lat="42.97834" lon="-0.69448">
        <ele>1591.3</ele>
        <time>2015-02-19T10:16:55Z</time>
      </trkpt>
      <trkpt lat="42.97835" lon="-0.69463">
        <ele>1592.5</ele>
        <time>2015-02-19T10:17:04Z</time>
      </trkpt>
      <trkpt lat="42.9784" lon="-0.69474">
        <ele>1593.1</ele>
        <time>2015-02-19T10:17:17Z</time>
      </trkpt>
      <trkpt lat="42.97843" lon="-0.69485">
        <ele>1595.1</ele>
        <time>2015-02-19T10:17:41Z</time>
      </trkpt>
      <trkpt lat="42.97834" lon="-0.6948">
        <ele>1595.3</ele>
        <time>2015-02-19T10:18:03Z</time>
      </trkpt>
      <trkpt lat="42.97837" lon="-0.69493">
        <ele>1591.8</ele>
        <time>2015-02-19T10:18:54Z</time>
      </trkpt>
      <trkpt lat="42.97836" lon="-0.69505">
        <ele>1591.8</ele>
        <time>2015-02-19T10:19:09Z</time>
      </trkpt>
      <trkpt lat="42.9783" lon="-0.69518">
        <ele>1590.9</ele>
        <time>2015-02-19T10:19:15Z</time>
      </trkpt>
      <trkpt lat="42.97825" lon="-0.69529">
        <ele>1589.1</ele>
        <time>2015-02-19T10:19:45Z</time>
      </trkpt>
      <trkpt lat="42.97817" lon="-0.69536">
        <ele>1588.8</ele>
        <time>2015-02-19T10:19:56Z</time>
      </trkpt>
      <trkpt lat="42.97809" lon="-0.69541">
        <ele>1588.5</ele>
        <time>2015-02-19T10:20:04Z</time>
      </trkpt>
      <trkpt lat="42.978" lon="-0.69545">
        <ele>1588.1</ele>
        <time>2015-02-19T10:20:35Z</time>
      </trkpt>
      <trkpt lat="42.97795" lon="-0.69556">
        <ele>1587.6</ele>
        <time>2015-02-19T10:20:51Z</time>
      </trkpt>
      <trkpt lat="42.97788" lon="-0.69565">
        <ele>1586.8</ele>
        <time>2015-02-19T10:22:22Z</time>
      </trkpt>
      <trkpt lat="42.97779" lon="-0.69571">
        <ele>1586.8</ele>
        <time>2015-02-19T10:22:28Z</time>
      </trkpt>
      <trkpt lat="42.97772" lon="-0.6958">
        <ele>1586.3</ele>
        <time>2015-02-19T10:22:35Z</time>
      </trkpt>
      <trkpt lat="42.97764" lon="-0.69584">
        <ele>1585.8</ele>
        <time>2015-02-19T10:22:43Z</time>
      </trkpt>
      <trkpt lat="42.97756" lon="-0.69593">
        <ele>1586.1</ele>
        <time>2015-02-19T10:22:51Z</time>
      </trkpt>
      <trkpt lat="42.9775" lon="-0.69603">
        <ele>1585.4</ele>
        <time>2015-02-19T10:23:01Z</time>
      </trkpt>
      <trkpt lat="42.97742" lon="-0.69611">
        <ele>1585.4</ele>
        <time>2015-02-19T10:23:10Z</time>
      </trkpt>
      <trkpt lat="42.97735" lon="-0.69619">
        <ele>1585.1</ele>
        <time>2015-02-19T10:23:20Z</time>
      </trkpt>
      <trkpt lat="42.97727" lon="-0.69626">
        <ele>1584.1</ele>
        <time>2015-02-19T10:23:50Z</time>
      </trkpt>
      <trkpt lat="42.97718" lon="-0.6963">
        <ele>1583.6</ele>
        <time>2015-02-19T10:24:16Z</time>
      </trkpt>
      <trkpt lat="42.97712" lon="-0.6964">
        <ele>1583.6</ele>
        <time>2015-02-19T10:24:29Z</time>
      </trkpt>
      <trkpt lat="42.97705" lon="-0.69648">
        <ele>1584.4</ele>
        <time>2015-02-19T10:24:45Z</time>
      </trkpt>
      <trkpt lat="42.97698" lon="-0.69657">
        <ele>1586</ele>
        <time>2015-02-19T10:24:59Z</time>
      </trkpt>
      <trkpt lat="42.97691" lon="-0.69665">
        <ele>1587.2</ele>
        <time>2015-02-19T10:25:11Z</time>
      </trkpt>
      <trkpt lat="42.97682" lon="-0.69669">
        <ele>1587.6</ele>
        <time>2015-02-19T10:25:18Z</time>
      </trkpt>
      <trkpt lat="42.97673" lon="-0.69675">
        <ele>1588.7</ele>
        <time>2015-02-19T10:25:29Z</time>
      </trkpt>
      <trkpt lat="42.97664" lon="-0.69681">
        <ele>1588.5</ele>
        <time>2015-02-19T10:25:40Z</time>
      </trkpt>
      <trkpt lat="42.97656" lon="-0.69687">
        <ele>1588.6</ele>
        <time>2015-02-19T10:25:55Z</time>
      </trkpt>
      <trkpt lat="42.97649" lon="-0.69694">
        <ele>1588.5</ele>
        <time>2015-02-19T10:26:03Z</time>
      </trkpt>
      <trkpt lat="42.97641" lon="-0.69701">
        <ele>1586.1</ele>
        <time>2015-02-19T10:26:57Z</time>
      </trkpt>
      <trkpt lat="42.97637" lon="-0.69712">
        <ele>1587.3</ele>
        <time>2015-02-19T10:28:27Z</time>
      </trkpt>
      <trkpt lat="42.97628" lon="-0.69714">
        <ele>1585.9</ele>
        <time>2015-02-19T10:29:04Z</time>
      </trkpt>
      <trkpt lat="42.9762" lon="-0.69719">
        <ele>1585.5</ele>
        <time>2015-02-19T10:29:08Z</time>
      </trkpt>
      <trkpt lat="42.97612" lon="-0.69728">
        <ele>1583.4</ele>
        <time>2015-02-19T10:30:05Z</time>
      </trkpt>
      <trkpt lat="42.97602" lon="-0.69729">
        <ele>1582.6</ele>
        <time>2015-02-19T10:30:09Z</time>
      </trkpt>
      <trkpt lat="42.97592" lon="-0.69727">
        <ele>1581.4</ele>
        <time>2015-02-19T10:30:17Z</time>
      </trkpt>
      <trkpt lat="42.97583" lon="-0.69731">
        <ele>1580.5</ele>
        <time>2015-02-19T10:30:25Z</time>
      </trkpt>
      <trkpt lat="42.97574" lon="-0.69729">
        <ele>1579.2</ele>
        <time>2015-02-19T10:31:13Z</time>
      </trkpt>
      <trkpt lat="42.97565" lon="-0.69729">
        <ele>1576.4</ele>
        <time>2015-02-19T10:37:24Z</time>
      </trkpt>
      <trkpt lat="42.97556" lon="-0.69728">
        <ele>1576.9</ele>
        <time>2015-02-19T10:37:39Z</time>
      </trkpt>
      <trkpt lat="42.97546" lon="-0.69729">
        <ele>1577.4</ele>
        <time>2015-02-19T10:37:46Z</time>
      </trkpt>
      <trkpt lat="42.97538" lon="-0.69736">
        <ele>1576.5</ele>
        <time>2015-02-19T10:37:56Z</time>
      </trkpt>
      <trkpt lat="42.97528" lon="-0.69744">
        <ele>1576.2</ele>
        <time>2015-02-19T10:38:00Z</time>
      </trkpt>
      <trkpt lat="42.9752" lon="-0.6975">
        <ele>1575.4</ele>
        <time>2015-02-19T10:38:04Z</time>
      </trkpt>
      <trkpt lat="42.97512" lon="-0.69758">
        <ele>1573.7</ele>
        <time>2015-02-19T10:38:12Z</time>
      </trkpt>
      <trkpt lat="42.97506" lon="-0.69768">
        <ele>1572.9</ele>
        <time>2015-02-19T10:38:18Z</time>
      </trkpt>
      <trkpt lat="42.975" lon="-0.69777">
        <ele>1572.6</ele>
        <time>2015-02-19T10:38:29Z</time>
      </trkpt>
      <trkpt lat="42.97496" lon="-0.69788">
        <ele>1572.9</ele>
        <time>2015-02-19T10:38:36Z</time>
      </trkpt>
      <trkpt lat="42.97488" lon="-0.69795">
        <ele>1572.5</ele>
        <time>2015-02-19T10:38:43Z</time>
      </trkpt>
      <trkpt lat="42.97478" lon="-0.69799">
        <ele>1571.5</ele>
        <time>2015-02-19T10:38:52Z</time>
      </trkpt>
      <trkpt lat="42.9747" lon="-0.69805">
        <ele>1569.9</ele>
        <time>2015-02-19T10:39:01Z</time>
      </trkpt>
      <trkpt lat="42.97461" lon="-0.698">
        <ele>1567</ele>
        <time>2015-02-19T10:40:47Z</time>
      </trkpt>
      <trkpt lat="42.97459" lon="-0.69812">
        <ele>1568</ele>
        <time>2015-02-19T10:41:26Z</time>
      </trkpt>
      <trkpt lat="42.9745" lon="-0.6982">
        <ele>1565.8</ele>
        <time>2015-02-19T10:41:36Z</time>
      </trkpt>
      <trkpt lat="42.97442" lon="-0.69825">
        <ele>1565.4</ele>
        <time>2015-02-19T10:41:39Z</time>
      </trkpt>
      <trkpt lat="42.97434" lon="-0.69833">
        <ele>1564.9</ele>
        <time>2015-02-19T10:41:42Z</time>
      </trkpt>
      <trkpt lat="42.97425" lon="-0.69843">
        <ele>1564.5</ele>
        <time>2015-02-19T10:41:45Z</time>
      </trkpt>
      <trkpt lat="42.97418" lon="-0.69851">
        <ele>1563.7</ele>
        <time>2015-02-19T10:42:03Z</time>
      </trkpt>
      <trkpt lat="42.97413" lon="-0.6984">
        <ele>1560.9</ele>
        <time>2015-02-19T10:43:03Z</time>
      </trkpt>
      <trkpt lat="42.97414" lon="-0.69853">
        <ele>1561.6</ele>
        <time>2015-02-19T10:43:47Z</time>
      </trkpt>
      <trkpt lat="42.97408" lon="-0.69862">
        <ele>1560.3</ele>
        <time>2015-02-19T10:43:59Z</time>
      </trkpt>
      <trkpt lat="42.97416" lon="-0.69866">
        <ele>1559</ele>
        <time>2015-02-19T10:44:54Z</time>
      </trkpt>
      <trkpt lat="42.97417" lon="-0.69879">
        <ele>1557.8</ele>
        <time>2015-02-19T10:45:36Z</time>
      </trkpt>
      <trkpt lat="42.9741" lon="-0.6989">
        <ele>1554.8</ele>
        <time>2015-02-19T10:46:13Z</time>
      </trkpt>
      <trkpt lat="42.97403" lon="-0.69902">
        <ele>1554</ele>
        <time>2015-02-19T10:46:17Z</time>
      </trkpt>
      <trkpt lat="42.97397" lon="-0.69913">
        <ele>1553.4</ele>
        <time>2015-02-19T10:46:20Z</time>
      </trkpt>
      <trkpt lat="42.97393" lon="-0.69925">
        <ele>1552.8</ele>
        <time>2015-02-19T10:46:23Z</time>
      </trkpt>
      <trkpt lat="42.9739" lon="-0.69941">
        <ele>1550</ele>
        <time>2015-02-19T10:46:26Z</time>
      </trkpt>
      <trkpt lat="42.9739" lon="-0.69957">
        <ele>1549.1</ele>
        <time>2015-02-19T10:46:30Z</time>
      </trkpt>
      <trkpt lat="42.9739" lon="-0.69971">
        <ele>1548</ele>
        <time>2015-02-19T10:46:34Z</time>
      </trkpt>
      <trkpt lat="42.97399" lon="-0.69973">
        <ele>1543</ele>
        <time>2015-02-19T10:46:58Z</time>
      </trkpt>
      <trkpt lat="42.97407" lon="-0.69965">
        <ele>1542</ele>
        <time>2015-02-19T10:47:02Z</time>
      </trkpt>
      <trkpt lat="42.97416" lon="-0.69959">
        <ele>1536.2</ele>
        <time>2015-02-19T10:47:04Z</time>
      </trkpt>
      <trkpt lat="42.97427" lon="-0.69952">
        <ele>1533.3</ele>
        <time>2015-02-19T10:47:07Z</time>
      </trkpt>
      <trkpt lat="42.97424" lon="-0.69967">
        <ele>1530.1</ele>
        <time>2015-02-19T10:47:18Z</time>
      </trkpt>
      <trkpt lat="42.97421" lon="-0.6998">
        <ele>1529.1</ele>
        <time>2015-02-19T10:47:21Z</time>
      </trkpt>
      <trkpt lat="42.97419" lon="-0.69995">
        <ele>1527.8</ele>
        <time>2015-02-19T10:47:25Z</time>
      </trkpt>
      <trkpt lat="42.97416" lon="-0.70013">
        <ele>1518.1</ele>
        <time>2015-02-19T10:47:28Z</time>
      </trkpt>
      <trkpt lat="42.97415" lon="-0.70029">
        <ele>1511.5</ele>
        <time>2015-02-19T10:47:30Z</time>
      </trkpt>
      <trkpt lat="42.97415" lon="-0.70043">
        <ele>1506.1</ele>
        <time>2015-02-19T10:47:32Z</time>
      </trkpt>
      <trkpt lat="42.97416" lon="-0.70056">
        <ele>1505.3</ele>
        <time>2015-02-19T10:47:36Z</time>
      </trkpt>
      <trkpt lat="42.97425" lon="-0.70059">
        <ele>1503.6</ele>
        <time>2015-02-19T10:47:57Z</time>
      </trkpt>
      <trkpt lat="42.97421" lon="-0.70071">
        <ele>1503.2</ele>
        <time>2015-02-19T10:48:32Z</time>
      </trkpt>
      <trkpt lat="42.97418" lon="-0.70083">
        <ele>1502.3</ele>
        <time>2015-02-19T10:48:40Z</time>
      </trkpt>
      <trkpt lat="42.97413" lon="-0.70096">
        <ele>1502.4</ele>
        <time>2015-02-19T10:48:51Z</time>
      </trkpt>
      <trkpt lat="42.97411" lon="-0.70111">
        <ele>1502.2</ele>
        <time>2015-02-19T10:48:54Z</time>
      </trkpt>
      <trkpt lat="42.9741" lon="-0.70124">
        <ele>1499.9</ele>
        <time>2015-02-19T10:48:56Z</time>
      </trkpt>
      <trkpt lat="42.9741" lon="-0.70137">
        <ele>1499.3</ele>
        <time>2015-02-19T10:49:00Z</time>
      </trkpt>
      <trkpt lat="42.97408" lon="-0.70151">
        <ele>1498.3</ele>
        <time>2015-02-19T10:49:10Z</time>
      </trkpt>
      <trkpt lat="42.97403" lon="-0.70161">
        <ele>1497.4</ele>
        <time>2015-02-19T10:49:20Z</time>
      </trkpt>
      <trkpt lat="42.97403" lon="-0.70174">
        <ele>1496.7</ele>
        <time>2015-02-19T10:49:28Z</time>
      </trkpt>
      <trkpt lat="42.97405" lon="-0.70187">
        <ele>1495.5</ele>
        <time>2015-02-19T10:49:38Z</time>
      </trkpt>
      <trkpt lat="42.97409" lon="-0.70199">
        <ele>1495.1</ele>
        <time>2015-02-19T10:50:13Z</time>
      </trkpt>
      <trkpt lat="42.97413" lon="-0.7021">
        <ele>1495</ele>
        <time>2015-02-19T10:50:25Z</time>
      </trkpt>
      <trkpt lat="42.97409" lon="-0.70198">
        <ele>1494.1</ele>
        <time>2015-02-19T10:51:00Z</time>
      </trkpt>
      <trkpt lat="42.97415" lon="-0.70188">
        <ele>1491.8</ele>
        <time>2015-02-19T10:51:38Z</time>
      </trkpt>
      <trkpt lat="42.97408" lon="-0.70197">
        <ele>1490.8</ele>
        <time>2015-02-19T10:52:08Z</time>
      </trkpt>
      <trkpt lat="42.97411" lon="-0.7021">
        <ele>1490.2</ele>
        <time>2015-02-19T10:53:11Z</time>
      </trkpt>
      <trkpt lat="42.97414" lon="-0.70222">
        <ele>1490.9</ele>
        <time>2015-02-19T10:53:18Z</time>
      </trkpt>
      <trkpt lat="42.97418" lon="-0.70233">
        <ele>1491.1</ele>
        <time>2015-02-19T10:53:28Z</time>
      </trkpt>
      <trkpt lat="42.97413" lon="-0.70244">
        <ele>1495.5</ele>
        <time>2015-02-19T10:54:08Z</time>
      </trkpt>
      <trkpt lat="42.9741" lon="-0.70256">
        <ele>1502.8</ele>
        <time>2015-02-19T10:54:30Z</time>
      </trkpt>
      <trkpt lat="42.97415" lon="-0.70267">
        <ele>1505.2</ele>
        <time>2015-02-19T10:54:41Z</time>
      </trkpt>
      <trkpt lat="42.9741" lon="-0.70277">
        <ele>1508.2</ele>
        <time>2015-02-19T10:55:34Z</time>
      </trkpt>
      <trkpt lat="42.97419" lon="-0.70281">
        <ele>1516.3</ele>
        <time>2015-02-19T10:58:00Z</time>
      </trkpt>
      <trkpt lat="42.97414" lon="-0.70292">
        <ele>1517</ele>
        <time>2015-02-19T10:58:23Z</time>
      </trkpt>
      <trkpt lat="42.97423" lon="-0.70297">
        <ele>1517.4</ele>
        <time>2015-02-19T10:58:35Z</time>
      </trkpt>
      <trkpt lat="42.9743" lon="-0.70306">
        <ele>1518.3</ele>
        <time>2015-02-19T10:58:51Z</time>
      </trkpt>
      <trkpt lat="42.97423" lon="-0.70314">
        <ele>1519.1</ele>
        <time>2015-02-19T10:59:09Z</time>
      </trkpt>
      <trkpt lat="42.97425" lon="-0.70327">
        <ele>1523.5</ele>
        <time>2015-02-19T10:59:40Z</time>
      </trkpt>
      <trkpt lat="42.9742" lon="-0.70338">
        <ele>1529.1</ele>
        <time>2015-02-19T11:00:21Z</time>
      </trkpt>
      <trkpt lat="42.97428" lon="-0.70345">
        <ele>1531.3</ele>
        <time>2015-02-19T11:00:47Z</time>
      </trkpt>
      <trkpt lat="42.9743" lon="-0.70357">
        <ele>1536.2</ele>
        <time>2015-02-19T11:01:13Z</time>
      </trkpt>
      <trkpt lat="42.97428" lon="-0.7037">
        <ele>1541.1</ele>
        <time>2015-02-19T11:01:57Z</time>
      </trkpt>
      <trkpt lat="42.9743" lon="-0.70382">
        <ele>1543.6</ele>
        <time>2015-02-19T11:02:13Z</time>
      </trkpt>
      <trkpt lat="42.97426" lon="-0.70394">
        <ele>1547.9</ele>
        <time>2015-02-19T11:02:47Z</time>
      </trkpt>
      <trkpt lat="42.97428" lon="-0.70406">
        <ele>1551.3</ele>
        <time>2015-02-19T11:03:31Z</time>
      </trkpt>
      <trkpt lat="42.97431" lon="-0.70418">
        <ele>1555.8</ele>
        <time>2015-02-19T11:04:36Z</time>
      </trkpt>
      <trkpt lat="42.97424" lon="-0.70426">
        <ele>1558.3</ele>
        <time>2015-02-19T11:05:41Z</time>
      </trkpt>
      <trkpt lat="42.97429" lon="-0.70436">
        <ele>1561.2</ele>
        <time>2015-02-19T11:05:59Z</time>
      </trkpt>
      <trkpt lat="42.97426" lon="-0.70448">
        <ele>1566.3</ele>
        <time>2015-02-19T11:06:52Z</time>
      </trkpt>
      <trkpt lat="42.97434" lon="-0.70455">
        <ele>1568.1</ele>
        <time>2015-02-19T11:07:07Z</time>
      </trkpt>
      <trkpt lat="42.97441" lon="-0.70463">
        <ele>1568.7</ele>
        <time>2015-02-19T11:07:27Z</time>
      </trkpt>
      <trkpt lat="42.97446" lon="-0.70451">
        <ele>1571.1</ele>
        <time>2015-02-19T11:12:10Z</time>
      </trkpt>
      <trkpt lat="42.9744" lon="-0.70462">
        <ele>1570.6</ele>
        <time>2015-02-19T11:12:30Z</time>
      </trkpt>
      <trkpt lat="42.97431" lon="-0.70467">
        <ele>1571.7</ele>
        <time>2015-02-19T11:14:46Z</time>
      </trkpt>
      <trkpt lat="42.97422" lon="-0.7047">
        <ele>1572.8</ele>
        <time>2015-02-19T11:14:58Z</time>
      </trkpt>
      <trkpt lat="42.97428" lon="-0.7048">
        <ele>1573.3</ele>
        <time>2015-02-19T11:15:15Z</time>
      </trkpt>
      <trkpt lat="42.97431" lon="-0.70492">
        <ele>1575.7</ele>
        <time>2015-02-19T11:15:33Z</time>
      </trkpt>
      <trkpt lat="42.97427" lon="-0.70503">
        <ele>1581.6</ele>
        <time>2015-02-19T11:16:11Z</time>
      </trkpt>
      <trkpt lat="42.97432" lon="-0.70513">
        <ele>1585.3</ele>
        <time>2015-02-19T11:16:34Z</time>
      </trkpt>
      <trkpt lat="42.97423" lon="-0.70515">
        <ele>1587.8</ele>
        <time>2015-02-19T11:16:51Z</time>
      </trkpt>
      <trkpt lat="42.97413" lon="-0.70514">
        <ele>1590.1</ele>
        <time>2015-02-19T11:17:08Z</time>
      </trkpt>
      <trkpt lat="42.97404" lon="-0.7051">
        <ele>1591.4</ele>
        <time>2015-02-19T11:17:19Z</time>
      </trkpt>
      <trkpt lat="42.97396" lon="-0.70504">
        <ele>1595.3</ele>
        <time>2015-02-19T11:17:40Z</time>
      </trkpt>
      <trkpt lat="42.97399" lon="-0.70516">
        <ele>1598.6</ele>
        <time>2015-02-19T11:18:00Z</time>
      </trkpt>
      <trkpt lat="42.97389" lon="-0.70516">
        <ele>1600.2</ele>
        <time>2015-02-19T11:18:30Z</time>
      </trkpt>
      <trkpt lat="42.97397" lon="-0.70524">
        <ele>1602.1</ele>
        <time>2015-02-19T11:18:51Z</time>
      </trkpt>
      <trkpt lat="42.97405" lon="-0.7053">
        <ele>1603.1</ele>
        <time>2015-02-19T11:19:00Z</time>
      </trkpt>
      <trkpt lat="42.97412" lon="-0.7054">
        <ele>1604.8</ele>
        <time>2015-02-19T11:19:14Z</time>
      </trkpt>
      <trkpt lat="42.97415" lon="-0.70552">
        <ele>1609.6</ele>
        <time>2015-02-19T11:19:53Z</time>
      </trkpt>
      <trkpt lat="42.97421" lon="-0.70561">
        <ele>1613.2</ele>
        <time>2015-02-19T11:20:10Z</time>
      </trkpt>
      <trkpt lat="42.97427" lon="-0.70572">
        <ele>1617.1</ele>
        <time>2015-02-19T11:20:30Z</time>
      </trkpt>
      <trkpt lat="42.97437" lon="-0.70576">
        <ele>1620.5</ele>
        <time>2015-02-19T11:21:06Z</time>
      </trkpt>
      <trkpt lat="42.97446" lon="-0.70581">
        <ele>1621.7</ele>
        <time>2015-02-19T11:21:14Z</time>
      </trkpt>
      <trkpt lat="42.97454" lon="-0.70587">
        <ele>1623</ele>
        <time>2015-02-19T11:21:24Z</time>
      </trkpt>
      <trkpt lat="42.97461" lon="-0.70596">
        <ele>1623.6</ele>
        <time>2015-02-19T11:21:32Z</time>
      </trkpt>
      <trkpt lat="42.97468" lon="-0.70604">
        <ele>1624.1</ele>
        <time>2015-02-19T11:21:40Z</time>
      </trkpt>
      <trkpt lat="42.97472" lon="-0.70616">
        <ele>1625.1</ele>
        <time>2015-02-19T11:21:51Z</time>
      </trkpt>
      <trkpt lat="42.97476" lon="-0.70627">
        <ele>1626.2</ele>
        <time>2015-02-19T11:22:02Z</time>
      </trkpt>
      <trkpt lat="42.9748" lon="-0.70639">
        <ele>1627.5</ele>
        <time>2015-02-19T11:22:13Z</time>
      </trkpt>
      <trkpt lat="42.97484" lon="-0.7065">
        <ele>1629</ele>
        <time>2015-02-19T11:22:23Z</time>
      </trkpt>
      <trkpt lat="42.97489" lon="-0.70662">
        <ele>1630.6</ele>
        <time>2015-02-19T11:22:55Z</time>
      </trkpt>
      <trkpt lat="42.9749" lon="-0.70675">
        <ele>1631.3</ele>
        <time>2015-02-19T11:25:47Z</time>
      </trkpt>
      <trkpt lat="42.97491" lon="-0.70688">
        <ele>1632.5</ele>
        <time>2015-02-19T11:25:57Z</time>
      </trkpt>
      <trkpt lat="42.97492" lon="-0.70701">
        <ele>1633.7</ele>
        <time>2015-02-19T11:26:06Z</time>
      </trkpt>
      <trkpt lat="42.97491" lon="-0.70713">
        <ele>1633.6</ele>
        <time>2015-02-19T11:26:12Z</time>
      </trkpt>
      <trkpt lat="42.97487" lon="-0.70724">
        <ele>1633.2</ele>
        <time>2015-02-19T11:26:20Z</time>
      </trkpt>
      <trkpt lat="42.97481" lon="-0.70736">
        <ele>1633.1</ele>
        <time>2015-02-19T11:26:30Z</time>
      </trkpt>
      <trkpt lat="42.97476" lon="-0.70746">
        <ele>1633.5</ele>
        <time>2015-02-19T11:26:42Z</time>
      </trkpt>
      <trkpt lat="42.97468" lon="-0.70752">
        <ele>1634.2</ele>
        <time>2015-02-19T11:26:53Z</time>
      </trkpt>
      <trkpt lat="42.9746" lon="-0.70761">
        <ele>1634.7</ele>
        <time>2015-02-19T11:27:03Z</time>
      </trkpt>
      <trkpt lat="42.97457" lon="-0.70774">
        <ele>1635.5</ele>
        <time>2015-02-19T11:27:11Z</time>
      </trkpt>
      <trkpt lat="42.97456" lon="-0.70786">
        <ele>1635.5</ele>
        <time>2015-02-19T11:27:20Z</time>
      </trkpt>
      <trkpt lat="42.97455" lon="-0.70799">
        <ele>1635.3</ele>
        <time>2015-02-19T11:27:30Z</time>
      </trkpt>
      <trkpt lat="42.97451" lon="-0.7081">
        <ele>1635.2</ele>
        <time>2015-02-19T11:27:41Z</time>
      </trkpt>
      <trkpt lat="42.97448" lon="-0.70822">
        <ele>1635.3</ele>
        <time>2015-02-19T11:27:51Z</time>
      </trkpt>
      <trkpt lat="42.97446" lon="-0.70834">
        <ele>1636</ele>
        <time>2015-02-19T11:28:02Z</time>
      </trkpt>
      <trkpt lat="42.97446" lon="-0.70846">
        <ele>1637.5</ele>
        <time>2015-02-19T11:28:13Z</time>
      </trkpt>
      <trkpt lat="42.97446" lon="-0.70859">
        <ele>1638</ele>
        <time>2015-02-19T11:28:22Z</time>
      </trkpt>
      <trkpt lat="42.97444" lon="-0.70871">
        <ele>1639</ele>
        <time>2015-02-19T11:28:35Z</time>
      </trkpt>
      <trkpt lat="42.97445" lon="-0.70884">
        <ele>1639.9</ele>
        <time>2015-02-19T11:28:46Z</time>
      </trkpt>
      <trkpt lat="42.97443" lon="-0.70896">
        <ele>1650.2</ele>
        <time>2015-02-19T11:33:05Z</time>
      </trkpt>
      <trkpt lat="42.97447" lon="-0.70908">
        <ele>1650.6</ele>
        <time>2015-02-19T11:33:16Z</time>
      </trkpt>
      <trkpt lat="42.97453" lon="-0.70917">
        <ele>1650.5</ele>
        <time>2015-02-19T11:33:28Z</time>
      </trkpt>
      <trkpt lat="42.97459" lon="-0.70927">
        <ele>1651</ele>
        <time>2015-02-19T11:34:38Z</time>
      </trkpt>
      <trkpt lat="42.97465" lon="-0.70936">
        <ele>1650.9</ele>
        <time>2015-02-19T11:34:51Z</time>
      </trkpt>
      <trkpt lat="42.97456" lon="-0.70928">
        <ele>1650.2</ele>
        <time>2015-02-19T11:35:23Z</time>
      </trkpt>
      <trkpt lat="42.97451" lon="-0.70918">
        <ele>1649.8</ele>
        <time>2015-02-19T11:36:39Z</time>
      </trkpt>
      <trkpt lat="42.97454" lon="-0.70906">
        <ele>1648.7</ele>
        <time>2015-02-19T11:38:38Z</time>
      </trkpt>
      <trkpt lat="42.97455" lon="-0.7092">
        <ele>1650.4</ele>
        <time>2015-02-19T11:38:54Z</time>
      </trkpt>
      <trkpt lat="42.97463" lon="-0.70926">
        <ele>1650.1</ele>
        <time>2015-02-19T11:39:27Z</time>
      </trkpt>
      <trkpt lat="42.97468" lon="-0.70937">
        <ele>1650.5</ele>
        <time>2015-02-19T11:39:41Z</time>
      </trkpt>
      <trkpt lat="42.97476" lon="-0.70944">
        <ele>1651.3</ele>
        <time>2015-02-19T11:39:48Z</time>
      </trkpt>
      <trkpt lat="42.97484" lon="-0.70951">
        <ele>1652.7</ele>
        <time>2015-02-19T11:40:05Z</time>
      </trkpt>
      <trkpt lat="42.97489" lon="-0.70962">
        <ele>1651.1</ele>
        <time>2015-02-19T11:40:20Z</time>
      </trkpt>
      <trkpt lat="42.97493" lon="-0.70973">
        <ele>1651</ele>
        <time>2015-02-19T11:40:33Z</time>
      </trkpt>
      <trkpt lat="42.97497" lon="-0.70984">
        <ele>1652</ele>
        <time>2015-02-19T11:40:50Z</time>
      </trkpt>
      <trkpt lat="42.97501" lon="-0.70996">
        <ele>1653.3</ele>
        <time>2015-02-19T11:41:11Z</time>
      </trkpt>
      <trkpt lat="42.9751" lon="-0.71">
        <ele>1656</ele>
        <time>2015-02-19T11:41:32Z</time>
      </trkpt>
      <trkpt lat="42.97517" lon="-0.71008">
        <ele>1660</ele>
        <time>2015-02-19T11:41:47Z</time>
      </trkpt>
      <trkpt lat="42.97522" lon="-0.71019">
        <ele>1663.3</ele>
        <time>2015-02-19T11:42:04Z</time>
      </trkpt>
      <trkpt lat="42.97527" lon="-0.7103">
        <ele>1664.1</ele>
        <time>2015-02-19T11:42:15Z</time>
      </trkpt>
      <trkpt lat="42.97529" lon="-0.71043">
        <ele>1663.8</ele>
        <time>2015-02-19T11:42:27Z</time>
      </trkpt>
      <trkpt lat="42.97532" lon="-0.71054">
        <ele>1664</ele>
        <time>2015-02-19T11:42:42Z</time>
      </trkpt>
      <trkpt lat="42.97537" lon="-0.71065">
        <ele>1664.5</ele>
        <time>2015-02-19T11:43:00Z</time>
      </trkpt>
      <trkpt lat="42.97545" lon="-0.71071">
        <ele>1665.2</ele>
        <time>2015-02-19T11:43:29Z</time>
      </trkpt>
      <trkpt lat="42.97547" lon="-0.71084">
        <ele>1666.8</ele>
        <time>2015-02-19T11:43:46Z</time>
      </trkpt>
      <trkpt lat="42.97552" lon="-0.71095">
        <ele>1672.8</ele>
        <time>2015-02-19T11:45:08Z</time>
      </trkpt>
      <trkpt lat="42.97555" lon="-0.71083">
        <ele>1678.6</ele>
        <time>2015-02-19T11:46:58Z</time>
      </trkpt>
      <trkpt lat="42.97561" lon="-0.71074">
        <ele>1679.8</ele>
        <time>2015-02-19T11:47:07Z</time>
      </trkpt>
      <trkpt lat="42.97563" lon="-0.71062">
        <ele>1681.2</ele>
        <time>2015-02-19T11:47:18Z</time>
      </trkpt>
      <trkpt lat="42.97568" lon="-0.71073">
        <ele>1684.8</ele>
        <time>2015-02-19T11:47:55Z</time>
      </trkpt>
      <trkpt lat="42.97571" lon="-0.71086">
        <ele>1686.4</ele>
        <time>2015-02-19T11:48:08Z</time>
      </trkpt>
      <trkpt lat="42.97576" lon="-0.71096">
        <ele>1688.5</ele>
        <time>2015-02-19T11:48:22Z</time>
      </trkpt>
      <trkpt lat="42.97584" lon="-0.71104">
        <ele>1691</ele>
        <time>2015-02-19T11:48:35Z</time>
      </trkpt>
      <trkpt lat="42.97592" lon="-0.71109">
        <ele>1693.3</ele>
        <time>2015-02-19T11:48:51Z</time>
      </trkpt>
      <trkpt lat="42.976" lon="-0.71116">
        <ele>1694.7</ele>
        <time>2015-02-19T11:49:02Z</time>
      </trkpt>
      <trkpt lat="42.97608" lon="-0.71124">
        <ele>1695.8</ele>
        <time>2015-02-19T11:49:16Z</time>
      </trkpt>
      <trkpt lat="42.97612" lon="-0.71135">
        <ele>1697.2</ele>
        <time>2015-02-19T11:49:26Z</time>
      </trkpt>
      <trkpt lat="42.97618" lon="-0.71144">
        <ele>1699.3</ele>
        <time>2015-02-19T11:49:38Z</time>
      </trkpt>
      <trkpt lat="42.97626" lon="-0.71136">
        <ele>1702.8</ele>
        <time>2015-02-19T11:50:04Z</time>
      </trkpt>
      <trkpt lat="42.97627" lon="-0.71124">
        <ele>1703.9</ele>
        <time>2015-02-19T11:50:18Z</time>
      </trkpt>
      <trkpt lat="42.97623" lon="-0.71113">
        <ele>1705.5</ele>
        <time>2015-02-19T11:50:31Z</time>
      </trkpt>
      <trkpt lat="42.97627" lon="-0.71101">
        <ele>1707.2</ele>
        <time>2015-02-19T11:50:53Z</time>
      </trkpt>
      <trkpt lat="42.97622" lon="-0.7109">
        <ele>1709.4</ele>
        <time>2015-02-19T11:51:18Z</time>
      </trkpt>
      <trkpt lat="42.9763" lon="-0.71098">
        <ele>1711.1</ele>
        <time>2015-02-19T11:51:37Z</time>
      </trkpt>
      <trkpt lat="42.97636" lon="-0.71107">
        <ele>1713.2</ele>
        <time>2015-02-19T11:52:01Z</time>
      </trkpt>
      <trkpt lat="42.97644" lon="-0.71114">
        <ele>1714.7</ele>
        <time>2015-02-19T11:52:12Z</time>
      </trkpt>
      <trkpt lat="42.9765" lon="-0.71124">
        <ele>1716.9</ele>
        <time>2015-02-19T11:53:10Z</time>
      </trkpt>
      <trkpt lat="42.97656" lon="-0.71113">
        <ele>1719.8</ele>
        <time>2015-02-19T11:53:39Z</time>
      </trkpt>
      <trkpt lat="42.97658" lon="-0.711">
        <ele>1722.4</ele>
        <time>2015-02-19T11:53:56Z</time>
      </trkpt>
      <trkpt lat="42.97664" lon="-0.71109">
        <ele>1726.7</ele>
        <time>2015-02-19T11:54:34Z</time>
      </trkpt>
      <trkpt lat="42.97672" lon="-0.71117">
        <ele>1728.7</ele>
        <time>2015-02-19T11:54:48Z</time>
      </trkpt>
      <trkpt lat="42.97679" lon="-0.71125">
        <ele>1731.2</ele>
        <time>2015-02-19T11:55:04Z</time>
      </trkpt>
      <trkpt lat="42.97686" lon="-0.71133">
        <ele>1733.4</ele>
        <time>2015-02-19T11:55:17Z</time>
      </trkpt>
      <trkpt lat="42.97696" lon="-0.71137">
        <ele>1735.9</ele>
        <time>2015-02-19T11:55:52Z</time>
      </trkpt>
      <trkpt lat="42.97693" lon="-0.71124">
        <ele>1738.8</ele>
        <time>2015-02-19T11:56:18Z</time>
      </trkpt>
      <trkpt lat="42.97703" lon="-0.71124">
        <ele>1741.9</ele>
        <time>2015-02-19T11:56:56Z</time>
      </trkpt>
      <trkpt lat="42.97703" lon="-0.71111">
        <ele>1746</ele>
        <time>2015-02-19T11:57:27Z</time>
      </trkpt>
      <trkpt lat="42.97697" lon="-0.71101">
        <ele>1747.5</ele>
        <time>2015-02-19T11:57:39Z</time>
      </trkpt>
      <trkpt lat="42.97698" lon="-0.71088">
        <ele>1748.7</ele>
        <time>2015-02-19T11:57:48Z</time>
      </trkpt>
      <trkpt lat="42.97701" lon="-0.71076">
        <ele>1749.5</ele>
        <time>2015-02-19T11:57:58Z</time>
      </trkpt>
      <trkpt lat="42.97706" lon="-0.71066">
        <ele>1750.3</ele>
        <time>2015-02-19T11:58:19Z</time>
      </trkpt>
      <trkpt lat="42.97714" lon="-0.71057">
        <ele>1752.4</ele>
        <time>2015-02-19T11:58:36Z</time>
      </trkpt>
      <trkpt lat="42.9772" lon="-0.71047">
        <ele>1754.5</ele>
        <time>2015-02-19T11:58:51Z</time>
      </trkpt>
      <trkpt lat="42.97724" lon="-0.71036">
        <ele>1756.1</ele>
        <time>2015-02-19T11:58:59Z</time>
      </trkpt>
      <trkpt lat="42.97727" lon="-0.71023">
        <ele>1756.6</ele>
        <time>2015-02-19T11:59:06Z</time>
      </trkpt>
      <trkpt lat="42.97721" lon="-0.71012">
        <ele>1756.5</ele>
        <time>2015-02-19T11:59:15Z</time>
      </trkpt>
      <trkpt lat="42.97712" lon="-0.71007">
        <ele>1756.8</ele>
        <time>2015-02-19T11:59:23Z</time>
      </trkpt>
      <trkpt lat="42.97706" lon="-0.70998">
        <ele>1757.6</ele>
        <time>2015-02-19T11:59:39Z</time>
      </trkpt>
      <trkpt lat="42.97711" lon="-0.70986">
        <ele>1758.9</ele>
        <time>2015-02-19T12:00:05Z</time>
      </trkpt>
      <trkpt lat="42.97711" lon="-0.70974">
        <ele>1759.6</ele>
        <time>2015-02-19T12:00:18Z</time>
      </trkpt>
      <trkpt lat="42.97719" lon="-0.70965">
        <ele>1760.7</ele>
        <time>2015-02-19T12:00:35Z</time>
      </trkpt>
      <trkpt lat="42.97728" lon="-0.70965">
        <ele>1761.7</ele>
        <time>2015-02-19T12:00:45Z</time>
      </trkpt>
      <trkpt lat="42.97738" lon="-0.70967">
        <ele>1762.9</ele>
        <time>2015-02-19T12:00:55Z</time>
      </trkpt>
      <trkpt lat="42.97746" lon="-0.70972">
        <ele>1764.8</ele>
        <time>2015-02-19T12:01:20Z</time>
      </trkpt>
      <trkpt lat="42.97755" lon="-0.70975">
        <ele>1766</ele>
        <time>2015-02-19T12:01:32Z</time>
      </trkpt>
      <trkpt lat="42.97761" lon="-0.70966">
        <ele>1765.2</ele>
        <time>2015-02-19T12:02:20Z</time>
      </trkpt>
      <trkpt lat="42.97768" lon="-0.70959">
        <ele>1764.9</ele>
        <time>2015-02-19T12:02:24Z</time>
      </trkpt>
      <trkpt lat="42.97774" lon="-0.70946">
        <ele>1763.6</ele>
        <time>2015-02-19T12:02:56Z</time>
      </trkpt>
      <trkpt lat="42.97777" lon="-0.70935">
        <ele>1763.1</ele>
        <time>2015-02-19T12:03:01Z</time>
      </trkpt>
      <trkpt lat="42.97781" lon="-0.70922">
        <ele>1762.8</ele>
        <time>2015-02-19T12:03:09Z</time>
      </trkpt>
      <trkpt lat="42.97782" lon="-0.7091">
        <ele>1762.4</ele>
        <time>2015-02-19T12:03:15Z</time>
      </trkpt>
      <trkpt lat="42.97783" lon="-0.70896">
        <ele>1761.9</ele>
        <time>2015-02-19T12:03:24Z</time>
      </trkpt>
      <trkpt lat="42.97783" lon="-0.70884">
        <ele>1761.4</ele>
        <time>2015-02-19T12:03:32Z</time>
      </trkpt>
      <trkpt lat="42.97783" lon="-0.70871">
        <ele>1760.9</ele>
        <time>2015-02-19T12:03:42Z</time>
      </trkpt>
      <trkpt lat="42.97786" lon="-0.70859">
        <ele>1760.9</ele>
        <time>2015-02-19T12:03:50Z</time>
      </trkpt>
      <trkpt lat="42.97786" lon="-0.70845">
        <ele>1761.5</ele>
        <time>2015-02-19T12:04:00Z</time>
      </trkpt>
      <trkpt lat="42.97787" lon="-0.70833">
        <ele>1761.8</ele>
        <time>2015-02-19T12:04:11Z</time>
      </trkpt>
      <trkpt lat="42.97796" lon="-0.70831">
        <ele>1762.2</ele>
        <time>2015-02-19T12:04:22Z</time>
      </trkpt>
      <trkpt lat="42.97801" lon="-0.70819">
        <ele>1763</ele>
        <time>2015-02-19T12:04:34Z</time>
      </trkpt>
      <trkpt lat="42.97807" lon="-0.70809">
        <ele>1764.2</ele>
        <time>2015-02-19T12:04:47Z</time>
      </trkpt>
      <trkpt lat="42.97806" lon="-0.70797">
        <ele>1763.9</ele>
        <time>2015-02-19T12:05:00Z</time>
      </trkpt>
      <trkpt lat="42.97798" lon="-0.70789">
        <ele>1764.4</ele>
        <time>2015-02-19T12:05:09Z</time>
      </trkpt>
      <trkpt lat="42.97798" lon="-0.70776">
        <ele>1765.5</ele>
        <time>2015-02-19T12:05:22Z</time>
      </trkpt>
      <trkpt lat="42.97797" lon="-0.70763">
        <ele>1766.1</ele>
        <time>2015-02-19T12:05:31Z</time>
      </trkpt>
      <trkpt lat="42.97793" lon="-0.70751">
        <ele>1766.9</ele>
        <time>2015-02-19T12:05:42Z</time>
      </trkpt>
      <trkpt lat="42.97786" lon="-0.70743">
        <ele>1755.3</ele>
        <time>2015-02-19T12:05:51Z</time>
      </trkpt>
      <trkpt lat="42.97777" lon="-0.70739">
        <ele>1756.5</ele>
        <time>2015-02-19T12:06:01Z</time>
      </trkpt>
      <trkpt lat="42.97767" lon="-0.70737">
        <ele>1758</ele>
        <time>2015-02-19T12:06:12Z</time>
      </trkpt>
      <trkpt lat="42.97759" lon="-0.70742">
        <ele>1759.8</ele>
        <time>2015-02-19T12:06:29Z</time>
      </trkpt>
      <trkpt lat="42.97754" lon="-0.70754">
        <ele>1761.3</ele>
        <time>2015-02-19T12:06:43Z</time>
      </trkpt>
      <trkpt lat="42.97745" lon="-0.70755">
        <ele>1762.4</ele>
        <time>2015-02-19T12:07:12Z</time>
      </trkpt>
      <trkpt lat="42.97738" lon="-0.70763">
        <ele>1763.1</ele>
        <time>2015-02-19T12:07:28Z</time>
      </trkpt>
      <trkpt lat="42.97731" lon="-0.70773">
        <ele>1763.7</ele>
        <time>2015-02-19T12:07:42Z</time>
      </trkpt>
      <trkpt lat="42.97723" lon="-0.70777">
        <ele>1764.3</ele>
        <time>2015-02-19T12:07:59Z</time>
      </trkpt>
      <trkpt lat="42.97716" lon="-0.70768">
        <ele>1764.8</ele>
        <time>2015-02-19T12:08:15Z</time>
      </trkpt>
      <trkpt lat="42.9771" lon="-0.70778">
        <ele>1765.2</ele>
        <time>2015-02-19T12:08:56Z</time>
      </trkpt>
      <trkpt lat="42.97701" lon="-0.7078">
        <ele>1765.8</ele>
        <time>2015-02-19T12:09:08Z</time>
      </trkpt>
      <trkpt lat="42.97698" lon="-0.70768">
        <ele>1766.2</ele>
        <time>2015-02-19T12:09:24Z</time>
      </trkpt>
      <trkpt lat="42.97703" lon="-0.70758">
        <ele>1765.9</ele>
        <time>2015-02-19T12:09:35Z</time>
      </trkpt>
      <trkpt lat="42.97704" lon="-0.70746">
        <ele>1765.6</ele>
        <time>2015-02-19T12:10:38Z</time>
      </trkpt>
      <trkpt lat="42.97704" lon="-0.70733">
        <ele>1764.6</ele>
        <time>2015-02-19T12:10:51Z</time>
      </trkpt>
      <trkpt lat="42.97703" lon="-0.70719">
        <ele>1763.8</ele>
        <time>2015-02-19T12:11:02Z</time>
      </trkpt>
      <trkpt lat="42.97702" lon="-0.70705">
        <ele>1762.9</ele>
        <time>2015-02-19T12:11:11Z</time>
      </trkpt>
      <trkpt lat="42.97698" lon="-0.70694">
        <ele>1762.6</ele>
        <time>2015-02-19T12:12:08Z</time>
      </trkpt>
      <trkpt lat="42.97691" lon="-0.70686">
        <ele>1762.7</ele>
        <time>2015-02-19T12:44:41Z</time>
      </trkpt>
      <trkpt lat="42.97694" lon="-0.70698">
        <ele>1763.2</ele>
        <time>2015-02-19T12:45:26Z</time>
      </trkpt>
      <trkpt lat="42.97703" lon="-0.70696">
        <ele>1762.2</ele>
        <time>2015-02-19T13:14:42Z</time>
      </trkpt>
      <trkpt lat="42.97707" lon="-0.70708">
        <ele>1762.6</ele>
        <time>2015-02-19T13:16:30Z</time>
      </trkpt>
      <trkpt lat="42.97717" lon="-0.70708">
        <ele>1761.7</ele>
        <time>2015-02-19T13:18:02Z</time>
      </trkpt>
      <trkpt lat="42.97723" lon="-0.70717">
        <ele>1761.8</ele>
        <time>2015-02-19T13:18:04Z</time>
      </trkpt>
      <trkpt lat="42.97731" lon="-0.70729">
        <ele>1762</ele>
        <time>2015-02-19T13:18:07Z</time>
      </trkpt>
      <trkpt lat="42.97741" lon="-0.70737">
        <ele>1761.7</ele>
        <time>2015-02-19T13:18:10Z</time>
      </trkpt>
      <trkpt lat="42.9775" lon="-0.70744">
        <ele>1761.6</ele>
        <time>2015-02-19T13:18:13Z</time>
      </trkpt>
      <trkpt lat="42.97763" lon="-0.70745">
        <ele>1759.3</ele>
        <time>2015-02-19T13:18:16Z</time>
      </trkpt>
      <trkpt lat="42.97777" lon="-0.70745">
        <ele>1757</ele>
        <time>2015-02-19T13:18:18Z</time>
      </trkpt>
      <trkpt lat="42.97788" lon="-0.70743">
        <ele>1755</ele>
        <time>2015-02-19T13:18:20Z</time>
      </trkpt>
      <trkpt lat="42.97797" lon="-0.70739">
        <ele>1753</ele>
        <time>2015-02-19T13:18:26Z</time>
      </trkpt>
      <trkpt lat="42.97805" lon="-0.70734">
        <ele>1751</ele>
        <time>2015-02-19T13:18:45Z</time>
      </trkpt>
      <trkpt lat="42.97813" lon="-0.7074">
        <ele>1750.3</ele>
        <time>2015-02-19T13:19:20Z</time>
      </trkpt>
      <trkpt lat="42.97822" lon="-0.70746">
        <ele>1749.5</ele>
        <time>2015-02-19T13:19:38Z</time>
      </trkpt>
      <trkpt lat="42.97831" lon="-0.70749">
        <ele>1748.4</ele>
        <time>2015-02-19T13:19:49Z</time>
      </trkpt>
      <trkpt lat="42.97839" lon="-0.70754">
        <ele>1746.7</ele>
        <time>2015-02-19T13:21:33Z</time>
      </trkpt>
      <trkpt lat="42.97848" lon="-0.70759">
        <ele>1744.3</ele>
        <time>2015-02-19T13:21:43Z</time>
      </trkpt>
      <trkpt lat="42.97858" lon="-0.70758">
        <ele>1741.6</ele>
        <time>2015-02-19T13:21:47Z</time>
      </trkpt>
      <trkpt lat="42.97867" lon="-0.70748">
        <ele>1738.2</ele>
        <time>2015-02-19T13:21:50Z</time>
      </trkpt>
      <trkpt lat="42.97874" lon="-0.70733">
        <ele>1734.8</ele>
        <time>2015-02-19T13:21:53Z</time>
      </trkpt>
      <trkpt lat="42.97884" lon="-0.70727">
        <ele>1731.7</ele>
        <time>2015-02-19T13:21:56Z</time>
      </trkpt>
      <trkpt lat="42.97893" lon="-0.70727">
        <ele>1729.2</ele>
        <time>2015-02-19T13:22:18Z</time>
      </trkpt>
      <trkpt lat="42.97906" lon="-0.70733">
        <ele>1726.2</ele>
        <time>2015-02-19T13:22:25Z</time>
      </trkpt>
      <trkpt lat="42.97918" lon="-0.70741">
        <ele>1723.3</ele>
        <time>2015-02-19T13:22:27Z</time>
      </trkpt>
      <trkpt lat="42.97933" lon="-0.70749">
        <ele>1720.1</ele>
        <time>2015-02-19T13:22:29Z</time>
      </trkpt>
      <trkpt lat="42.97947" lon="-0.70751">
        <ele>1716.7</ele>
        <time>2015-02-19T13:22:31Z</time>
      </trkpt>
      <trkpt lat="42.97959" lon="-0.70749">
        <ele>1713.9</ele>
        <time>2015-02-19T13:22:33Z</time>
      </trkpt>
      <trkpt lat="42.97968" lon="-0.70744">
        <ele>1711.7</ele>
        <time>2015-02-19T13:22:35Z</time>
      </trkpt>
      <trkpt lat="42.97973" lon="-0.70734">
        <ele>1710.4</ele>
        <time>2015-02-19T13:22:37Z</time>
      </trkpt>
      <trkpt lat="42.97983" lon="-0.70723">
        <ele>1708.5</ele>
        <time>2015-02-19T13:22:39Z</time>
      </trkpt>
      <trkpt lat="42.97991" lon="-0.70709">
        <ele>1706.8</ele>
        <time>2015-02-19T13:22:41Z</time>
      </trkpt>
      <trkpt lat="42.98001" lon="-0.70698">
        <ele>1704.8</ele>
        <time>2015-02-19T13:22:43Z</time>
      </trkpt>
      <trkpt lat="42.98014" lon="-0.70689">
        <ele>1700.3</ele>
        <time>2015-02-19T13:22:45Z</time>
      </trkpt>
      <trkpt lat="42.98026" lon="-0.7068">
        <ele>1695.8</ele>
        <time>2015-02-19T13:22:47Z</time>
      </trkpt>
      <trkpt lat="42.98036" lon="-0.70662">
        <ele>1691.9</ele>
        <time>2015-02-19T13:22:49Z</time>
      </trkpt>
      <trkpt lat="42.98043" lon="-0.70651">
        <ele>1688.7</ele>
        <time>2015-02-19T13:22:51Z</time>
      </trkpt>
      <trkpt lat="42.98054" lon="-0.70659">
        <ele>1685</ele>
        <time>2015-02-19T13:24:48Z</time>
      </trkpt>
      <trkpt lat="42.98064" lon="-0.70664">
        <ele>1681.3</ele>
        <time>2015-02-19T13:24:50Z</time>
      </trkpt>
      <trkpt lat="42.98075" lon="-0.70671">
        <ele>1677.2</ele>
        <time>2015-02-19T13:24:52Z</time>
      </trkpt>
      <trkpt lat="42.98083" lon="-0.70685">
        <ele>1674.7</ele>
        <time>2015-02-19T13:24:55Z</time>
      </trkpt>
      <trkpt lat="42.98092" lon="-0.70693">
        <ele>1671</ele>
        <time>2015-02-19T13:24:58Z</time>
      </trkpt>
      <trkpt lat="42.98102" lon="-0.70704">
        <ele>1666.7</ele>
        <time>2015-02-19T13:25:01Z</time>
      </trkpt>
      <trkpt lat="42.98112" lon="-0.70714">
        <ele>1662.5</ele>
        <time>2015-02-19T13:25:04Z</time>
      </trkpt>
      <trkpt lat="42.98118" lon="-0.70726">
        <ele>1660</ele>
        <time>2015-02-19T13:25:07Z</time>
      </trkpt>
      <trkpt lat="42.98124" lon="-0.70737">
        <ele>1657.5</ele>
        <time>2015-02-19T13:25:10Z</time>
      </trkpt>
      <trkpt lat="42.98133" lon="-0.70742">
        <ele>1653.3</ele>
        <time>2015-02-19T13:25:13Z</time>
      </trkpt>
      <trkpt lat="42.98143" lon="-0.70733">
        <ele>1648.4</ele>
        <time>2015-02-19T13:25:16Z</time>
      </trkpt>
      <trkpt lat="42.98147" lon="-0.70719">
        <ele>1646.2</ele>
        <time>2015-02-19T13:25:19Z</time>
      </trkpt>
      <trkpt lat="42.98157" lon="-0.70721">
        <ele>1641.7</ele>
        <time>2015-02-19T13:25:34Z</time>
      </trkpt>
      <trkpt lat="42.98168" lon="-0.70728">
        <ele>1636.5</ele>
        <time>2015-02-19T13:25:37Z</time>
      </trkpt>
      <trkpt lat="42.98177" lon="-0.70723">
        <ele>1631.8</ele>
        <time>2015-02-19T13:25:40Z</time>
      </trkpt>
      <trkpt lat="42.98185" lon="-0.70712">
        <ele>1627.3</ele>
        <time>2015-02-19T13:25:43Z</time>
      </trkpt>
      <trkpt lat="42.98189" lon="-0.70699">
        <ele>1624.9</ele>
        <time>2015-02-19T13:25:45Z</time>
      </trkpt>
      <trkpt lat="42.98196" lon="-0.70688">
        <ele>1621</ele>
        <time>2015-02-19T13:25:47Z</time>
      </trkpt>
      <trkpt lat="42.98205" lon="-0.7068">
        <ele>1616.7</ele>
        <time>2015-02-19T13:25:50Z</time>
      </trkpt>
      <trkpt lat="42.98212" lon="-0.70674">
        <ele>1612.6</ele>
        <time>2015-02-19T13:25:54Z</time>
      </trkpt>
      <trkpt lat="42.98222" lon="-0.70675">
        <ele>1607.8</ele>
        <time>2015-02-19T13:26:27Z</time>
      </trkpt>
      <trkpt lat="42.98232" lon="-0.70683">
        <ele>1602.9</ele>
        <time>2015-02-19T13:26:31Z</time>
      </trkpt>
      <trkpt lat="42.98242" lon="-0.70688">
        <ele>1598.2</ele>
        <time>2015-02-19T13:26:34Z</time>
      </trkpt>
      <trkpt lat="42.98248" lon="-0.707">
        <ele>1595.2</ele>
        <time>2015-02-19T13:26:37Z</time>
      </trkpt>
      <trkpt lat="42.98253" lon="-0.70712">
        <ele>1593</ele>
        <time>2015-02-19T13:26:40Z</time>
      </trkpt>
      <trkpt lat="42.98258" lon="-0.70725">
        <ele>1590.5</ele>
        <time>2015-02-19T13:26:43Z</time>
      </trkpt>
      <trkpt lat="42.98267" lon="-0.70732">
        <ele>1585.4</ele>
        <time>2015-02-19T13:26:46Z</time>
      </trkpt>
      <trkpt lat="42.98281" lon="-0.70735">
        <ele>1578.2</ele>
        <time>2015-02-19T13:26:49Z</time>
      </trkpt>
      <trkpt lat="42.98291" lon="-0.70744">
        <ele>1572.1</ele>
        <time>2015-02-19T13:26:52Z</time>
      </trkpt>
      <trkpt lat="42.98301" lon="-0.7075">
        <ele>1566.6</ele>
        <time>2015-02-19T13:27:14Z</time>
      </trkpt>
      <trkpt lat="42.98312" lon="-0.70751">
        <ele>1561</ele>
        <time>2015-02-19T13:27:18Z</time>
      </trkpt>
      <trkpt lat="42.98321" lon="-0.70747">
        <ele>1555.9</ele>
        <time>2015-02-19T13:27:22Z</time>
      </trkpt>
      <trkpt lat="42.98331" lon="-0.70741">
        <ele>1550.7</ele>
        <time>2015-02-19T13:27:25Z</time>
      </trkpt>
      <trkpt lat="42.98338" lon="-0.70734">
        <ele>1546.5</ele>
        <time>2015-02-19T13:27:27Z</time>
      </trkpt>
      <trkpt lat="42.98347" lon="-0.70728">
        <ele>1541.8</ele>
        <time>2015-02-19T13:27:31Z</time>
      </trkpt>
      <trkpt lat="42.98357" lon="-0.70725">
        <ele>1536</ele>
        <time>2015-02-19T13:27:34Z</time>
      </trkpt>
      <trkpt lat="42.98364" lon="-0.70715">
        <ele>1532.5</ele>
        <time>2015-02-19T13:28:02Z</time>
      </trkpt>
      <trkpt lat="42.98375" lon="-0.70718">
        <ele>1526</ele>
        <time>2015-02-19T13:28:10Z</time>
      </trkpt>
      <trkpt lat="42.98384" lon="-0.70724">
        <ele>1520.2</ele>
        <time>2015-02-19T13:28:14Z</time>
      </trkpt>
      <trkpt lat="42.98393" lon="-0.70728">
        <ele>1514.8</ele>
        <time>2015-02-19T13:28:16Z</time>
      </trkpt>
      <trkpt lat="42.98401" lon="-0.70734">
        <ele>1509.7</ele>
        <time>2015-02-19T13:28:19Z</time>
      </trkpt>
      <trkpt lat="42.98402" lon="-0.70747">
        <ele>1508.2</ele>
        <time>2015-02-19T13:28:39Z</time>
      </trkpt>
      <trkpt lat="42.98403" lon="-0.70734">
        <ele>1508.4</ele>
        <time>2015-02-19T13:29:55Z</time>
      </trkpt>
      <trkpt lat="42.98409" lon="-0.70723">
        <ele>1505.8</ele>
        <time>2015-02-19T13:30:05Z</time>
      </trkpt>
      <trkpt lat="42.98418" lon="-0.70719">
        <ele>1500.5</ele>
        <time>2015-02-19T13:30:50Z</time>
      </trkpt>
      <trkpt lat="42.98426" lon="-0.7071">
        <ele>1496.2</ele>
        <time>2015-02-19T13:30:55Z</time>
      </trkpt>
      <trkpt lat="42.98435" lon="-0.70698">
        <ele>1491.5</ele>
        <time>2015-02-19T13:30:59Z</time>
      </trkpt>
      <trkpt lat="42.98442" lon="-0.70689">
        <ele>1487.8</ele>
        <time>2015-02-19T13:31:04Z</time>
      </trkpt>
      <trkpt lat="42.98449" lon="-0.70676">
        <ele>1484.5</ele>
        <time>2015-02-19T13:31:08Z</time>
      </trkpt>
      <trkpt lat="42.98454" lon="-0.70666">
        <ele>1482.1</ele>
        <time>2015-02-19T13:31:11Z</time>
      </trkpt>
      <trkpt lat="42.9846" lon="-0.70654">
        <ele>1479</ele>
        <time>2015-02-19T13:31:17Z</time>
      </trkpt>
      <trkpt lat="42.98465" lon="-0.70642">
        <ele>1476.7</ele>
        <time>2015-02-19T13:31:23Z</time>
      </trkpt>
      <trkpt lat="42.9847" lon="-0.70627">
        <ele>1474.7</ele>
        <time>2015-02-19T13:31:26Z</time>
      </trkpt>
      <trkpt lat="42.98473" lon="-0.70612">
        <ele>1473.6</ele>
        <time>2015-02-19T13:31:29Z</time>
      </trkpt>
      <trkpt lat="42.98476" lon="-0.70598">
        <ele>1473.2</ele>
        <time>2015-02-19T13:31:33Z</time>
      </trkpt>
      <trkpt lat="42.98482" lon="-0.70584">
        <ele>1470.6</ele>
        <time>2015-02-19T13:32:04Z</time>
      </trkpt>
      <trkpt lat="42.98488" lon="-0.70574">
        <ele>1467.5</ele>
        <time>2015-02-19T13:32:07Z</time>
      </trkpt>
      <trkpt lat="42.98494" lon="-0.70562">
        <ele>1463.9</ele>
        <time>2015-02-19T13:32:13Z</time>
      </trkpt>
      <trkpt lat="42.98498" lon="-0.7055">
        <ele>1461.7</ele>
        <time>2015-02-19T13:32:23Z</time>
      </trkpt>
      <trkpt lat="42.98508" lon="-0.70556">
        <ele>1456.4</ele>
        <time>2015-02-19T13:33:02Z</time>
      </trkpt>
      <trkpt lat="42.98518" lon="-0.7056">
        <ele>1451.3</ele>
        <time>2015-02-19T13:33:05Z</time>
      </trkpt>
      <trkpt lat="42.98529" lon="-0.70553">
        <ele>1446.3</ele>
        <time>2015-02-19T13:33:10Z</time>
      </trkpt>
      <trkpt lat="42.98539" lon="-0.70562">
        <ele>1440.4</ele>
        <time>2015-02-19T13:33:13Z</time>
      </trkpt>
      <trkpt lat="42.98548" lon="-0.70555">
        <ele>1436.5</ele>
        <time>2015-02-19T13:33:16Z</time>
      </trkpt>
      <trkpt lat="42.98556" lon="-0.70549">
        <ele>1432.7</ele>
        <time>2015-02-19T13:33:18Z</time>
      </trkpt>
      <trkpt lat="42.98566" lon="-0.70546">
        <ele>1428.4</ele>
        <time>2015-02-19T13:33:21Z</time>
      </trkpt>
      <trkpt lat="42.98573" lon="-0.70537">
        <ele>1425.4</ele>
        <time>2015-02-19T13:33:23Z</time>
      </trkpt>
      <trkpt lat="42.98581" lon="-0.70523">
        <ele>1422.8</ele>
        <time>2015-02-19T13:33:26Z</time>
      </trkpt>
      <trkpt lat="42.98587" lon="-0.70513">
        <ele>1421.5</ele>
        <time>2015-02-19T13:33:28Z</time>
      </trkpt>
      <trkpt lat="42.98592" lon="-0.70503">
        <ele>1420.9</ele>
        <time>2015-02-19T13:33:30Z</time>
      </trkpt>
      <trkpt lat="42.98596" lon="-0.70491">
        <ele>1420.3</ele>
        <time>2015-02-19T13:33:32Z</time>
      </trkpt>
      <trkpt lat="42.98599" lon="-0.70478">
        <ele>1420.1</ele>
        <time>2015-02-19T13:33:35Z</time>
      </trkpt>
      <trkpt lat="42.98596" lon="-0.70466">
        <ele>1421.1</ele>
        <time>2015-02-19T13:34:25Z</time>
      </trkpt>
      <trkpt lat="42.98604" lon="-0.70456">
        <ele>1419.7</ele>
        <time>2015-02-19T13:34:54Z</time>
      </trkpt>
      <trkpt lat="42.98615" lon="-0.70451">
        <ele>1416.9</ele>
        <time>2015-02-19T13:34:57Z</time>
      </trkpt>
      <trkpt lat="42.98624" lon="-0.70462">
        <ele>1413.8</ele>
        <time>2015-02-19T13:35:00Z</time>
      </trkpt>
      <trkpt lat="42.98635" lon="-0.70454">
        <ele>1411.3</ele>
        <time>2015-02-19T13:35:03Z</time>
      </trkpt>
      <trkpt lat="42.98644" lon="-0.70444">
        <ele>1409.8</ele>
        <time>2015-02-19T13:35:05Z</time>
      </trkpt>
      <trkpt lat="42.98657" lon="-0.70436">
        <ele>1407.2</ele>
        <time>2015-02-19T13:35:07Z</time>
      </trkpt>
      <trkpt lat="42.98675" lon="-0.7043">
        <ele>1405.6</ele>
        <time>2015-02-19T13:35:09Z</time>
      </trkpt>
      <trkpt lat="42.98684" lon="-0.70426">
        <ele>1405.9</ele>
        <time>2015-02-19T13:35:10Z</time>
      </trkpt>
      <trkpt lat="42.987" lon="-0.70419">
        <ele>1406.7</ele>
        <time>2015-02-19T13:35:12Z</time>
      </trkpt>
      <trkpt lat="42.98714" lon="-0.70414">
        <ele>1406.8</ele>
        <time>2015-02-19T13:35:14Z</time>
      </trkpt>
      <trkpt lat="42.98726" lon="-0.70403">
        <ele>1406.1</ele>
        <time>2015-02-19T13:35:16Z</time>
      </trkpt>
      <trkpt lat="42.98733" lon="-0.70396">
        <ele>1405.6</ele>
        <time>2015-02-19T13:35:18Z</time>
      </trkpt>
      <trkpt lat="42.98741" lon="-0.70403">
        <ele>1406.1</ele>
        <time>2015-02-19T13:38:58Z</time>
      </trkpt>
      <trkpt lat="42.98751" lon="-0.70396">
        <ele>1422.7</ele>
        <time>2015-02-19T13:39:00Z</time>
      </trkpt>
      <trkpt lat="42.98758" lon="-0.70389">
        <ele>1423.5</ele>
        <time>2015-02-19T13:39:02Z</time>
      </trkpt>
      <trkpt lat="42.9877" lon="-0.70381">
        <ele>1422.6</ele>
        <time>2015-02-19T13:39:05Z</time>
      </trkpt>
      <trkpt lat="42.9878" lon="-0.70377">
        <ele>1420.5</ele>
        <time>2015-02-19T13:39:07Z</time>
      </trkpt>
      <trkpt lat="42.98791" lon="-0.70373">
        <ele>1417.8</ele>
        <time>2015-02-19T13:39:09Z</time>
      </trkpt>
      <trkpt lat="42.98799" lon="-0.70368">
        <ele>1413.3</ele>
        <time>2015-02-19T13:39:11Z</time>
      </trkpt>
      <trkpt lat="42.98813" lon="-0.70363">
        <ele>1410</ele>
        <time>2015-02-19T13:39:14Z</time>
      </trkpt>
      <trkpt lat="42.98825" lon="-0.70359">
        <ele>1404.5</ele>
        <time>2015-02-19T13:39:17Z</time>
      </trkpt>
      <trkpt lat="42.98831" lon="-0.70378">
        <ele>1401.8</ele>
        <time>2015-02-19T13:39:19Z</time>
      </trkpt>
      <trkpt lat="42.98838" lon="-0.70389">
        <ele>1397.6</ele>
        <time>2015-02-19T13:39:21Z</time>
      </trkpt>
      <trkpt lat="42.98846" lon="-0.70404">
        <ele>1394.1</ele>
        <time>2015-02-19T13:39:24Z</time>
      </trkpt>
      <trkpt lat="42.98853" lon="-0.70418">
        <ele>1390.4</ele>
        <time>2015-02-19T13:39:26Z</time>
      </trkpt>
      <trkpt lat="42.98863" lon="-0.70426">
        <ele>1387.9</ele>
        <time>2015-02-19T13:39:37Z</time>
      </trkpt>
      <trkpt lat="42.98872" lon="-0.70437">
        <ele>1378.8</ele>
        <time>2015-02-19T13:39:40Z</time>
      </trkpt>
      <trkpt lat="42.98882" lon="-0.70437">
        <ele>1372.2</ele>
        <time>2015-02-19T13:39:42Z</time>
      </trkpt>
      <trkpt lat="42.98889" lon="-0.70427">
        <ele>1370.1</ele>
        <time>2015-02-19T13:39:44Z</time>
      </trkpt>
      <trkpt lat="42.98894" lon="-0.70415">
        <ele>1369.5</ele>
        <time>2015-02-19T13:39:47Z</time>
      </trkpt>
      <trkpt lat="42.98901" lon="-0.70424">
        <ele>1363.7</ele>
        <time>2015-02-19T13:40:24Z</time>
      </trkpt>
      <trkpt lat="42.98906" lon="-0.70436">
        <ele>1362</ele>
        <time>2015-02-19T13:40:30Z</time>
      </trkpt>
      <trkpt lat="42.98916" lon="-0.70438">
        <ele>1358.1</ele>
        <time>2015-02-19T13:40:33Z</time>
      </trkpt>
      <trkpt lat="42.98926" lon="-0.70439">
        <ele>1351.8</ele>
        <time>2015-02-19T13:40:35Z</time>
      </trkpt>
      <trkpt lat="42.98939" lon="-0.70437">
        <ele>1345.6</ele>
        <time>2015-02-19T13:40:37Z</time>
      </trkpt>
      <trkpt lat="42.98949" lon="-0.70432">
        <ele>1342.2</ele>
        <time>2015-02-19T13:40:39Z</time>
      </trkpt>
      <trkpt lat="42.98961" lon="-0.70434">
        <ele>1337.7</ele>
        <time>2015-02-19T13:40:42Z</time>
      </trkpt>
      <trkpt lat="42.9897" lon="-0.70434">
        <ele>1332</ele>
        <time>2015-02-19T13:40:44Z</time>
      </trkpt>
      <trkpt lat="42.98976" lon="-0.70422">
        <ele>1329.8</ele>
        <time>2015-02-19T13:40:46Z</time>
      </trkpt>
      <trkpt lat="42.98985" lon="-0.70426">
        <ele>1325.1</ele>
        <time>2015-02-19T13:41:41Z</time>
      </trkpt>
      <trkpt lat="42.98994" lon="-0.70422">
        <ele>1319.2</ele>
        <time>2015-02-19T13:41:43Z</time>
      </trkpt>
      <trkpt lat="42.99003" lon="-0.70422">
        <ele>1316.9</ele>
        <time>2015-02-19T13:41:45Z</time>
      </trkpt>
      <trkpt lat="42.99013" lon="-0.70419">
        <ele>1311.4</ele>
        <time>2015-02-19T13:41:47Z</time>
      </trkpt>
      <trkpt lat="42.99022" lon="-0.70417">
        <ele>1307.4</ele>
        <time>2015-02-19T13:41:49Z</time>
      </trkpt>
      <trkpt lat="42.99033" lon="-0.70419">
        <ele>1303.5</ele>
        <time>2015-02-19T13:41:51Z</time>
      </trkpt>
      <trkpt lat="42.99042" lon="-0.70427">
        <ele>1299.8</ele>
        <time>2015-02-19T13:41:53Z</time>
      </trkpt>
      <trkpt lat="42.99054" lon="-0.70426">
        <ele>1294.5</ele>
        <time>2015-02-19T13:41:55Z</time>
      </trkpt>
      <trkpt lat="42.99065" lon="-0.70428">
        <ele>1289.2</ele>
        <time>2015-02-19T13:41:57Z</time>
      </trkpt>
      <trkpt lat="42.99072" lon="-0.70435">
        <ele>1286.8</ele>
        <time>2015-02-19T13:42:16Z</time>
      </trkpt>
      <trkpt lat="42.99065" lon="-0.70427">
        <ele>1284.9</ele>
        <time>2015-02-19T13:42:35Z</time>
      </trkpt>
      <trkpt lat="42.99075" lon="-0.70424">
        <ele>1282.7</ele>
        <time>2015-02-19T13:42:58Z</time>
      </trkpt>
      <trkpt lat="42.99082" lon="-0.70409">
        <ele>1281.8</ele>
        <time>2015-02-19T13:43:02Z</time>
      </trkpt>
      <trkpt lat="42.99087" lon="-0.70397">
        <ele>1281.2</ele>
        <time>2015-02-19T13:43:04Z</time>
      </trkpt>
      <trkpt lat="42.99091" lon="-0.70383">
        <ele>1278.4</ele>
        <time>2015-02-19T13:43:51Z</time>
      </trkpt>
      <trkpt lat="42.99097" lon="-0.70395">
        <ele>1276.8</ele>
        <time>2015-02-19T13:43:57Z</time>
      </trkpt>
      <trkpt lat="42.99106" lon="-0.70392">
        <ele>1275.9</ele>
        <time>2015-02-19T13:44:00Z</time>
      </trkpt>
      <trkpt lat="42.99115" lon="-0.70398">
        <ele>1270.4</ele>
        <time>2015-02-19T13:44:04Z</time>
      </trkpt>
      <trkpt lat="42.99122" lon="-0.70409">
        <ele>1266.3</ele>
        <time>2015-02-19T13:44:06Z</time>
      </trkpt>
      <trkpt lat="42.99132" lon="-0.70413">
        <ele>1261.4</ele>
        <time>2015-02-19T13:44:09Z</time>
      </trkpt>
      <trkpt lat="42.99141" lon="-0.70419">
        <ele>1260.5</ele>
        <time>2015-02-19T13:44:12Z</time>
      </trkpt>
      <trkpt lat="42.9915" lon="-0.70408">
        <ele>1253.1</ele>
        <time>2015-02-19T13:44:15Z</time>
      </trkpt>
      <trkpt lat="42.99156" lon="-0.70397">
        <ele>1252.8</ele>
        <time>2015-02-19T13:44:18Z</time>
      </trkpt>
      <trkpt lat="42.9916" lon="-0.70385">
        <ele>1252</ele>
        <time>2015-02-19T13:44:25Z</time>
      </trkpt>
      <trkpt lat="42.99161" lon="-0.70373">
        <ele>1242.9</ele>
        <time>2015-02-19T13:47:33Z</time>
      </trkpt>
      <trkpt lat="42.99164" lon="-0.7036">
        <ele>1241.3</ele>
        <time>2015-02-19T13:47:58Z</time>
      </trkpt>
      <trkpt lat="42.99175" lon="-0.70353">
        <ele>1239.1</ele>
        <time>2015-02-19T13:48:00Z</time>
      </trkpt>
      <trkpt lat="42.99186" lon="-0.70342">
        <ele>1236.8</ele>
        <time>2015-02-19T13:48:02Z</time>
      </trkpt>
      <trkpt lat="42.99196" lon="-0.70326">
        <ele>1234.4</ele>
        <time>2015-02-19T13:48:04Z</time>
      </trkpt>
      <trkpt lat="42.99208" lon="-0.70311">
        <ele>1231.1</ele>
        <time>2015-02-19T13:48:06Z</time>
      </trkpt>
      <trkpt lat="42.99221" lon="-0.70313">
        <ele>1228.4</ele>
        <time>2015-02-19T13:48:08Z</time>
      </trkpt>
      <trkpt lat="42.99235" lon="-0.70307">
        <ele>1224.4</ele>
        <time>2015-02-19T13:48:10Z</time>
      </trkpt>
      <trkpt lat="42.99246" lon="-0.70298">
        <ele>1221.1</ele>
        <time>2015-02-19T13:48:12Z</time>
      </trkpt>
      <trkpt lat="42.99258" lon="-0.70292">
        <ele>1218.2</ele>
        <time>2015-02-19T13:48:14Z</time>
      </trkpt>
      <trkpt lat="42.99274" lon="-0.70291">
        <ele>1215</ele>
        <time>2015-02-19T13:48:16Z</time>
      </trkpt>
      <trkpt lat="42.99288" lon="-0.70282">
        <ele>1210.9</ele>
        <time>2015-02-19T13:48:18Z</time>
      </trkpt>
      <trkpt lat="42.99302" lon="-0.7028">
        <ele>1207</ele>
        <time>2015-02-19T13:48:20Z</time>
      </trkpt>
      <trkpt lat="42.99314" lon="-0.70274">
        <ele>1202.4</ele>
        <time>2015-02-19T13:48:22Z</time>
      </trkpt>
      <trkpt lat="42.99325" lon="-0.7027">
        <ele>1199.5</ele>
        <time>2015-02-19T13:48:24Z</time>
      </trkpt>
      <trkpt lat="42.99334" lon="-0.70271">
        <ele>1196.5</ele>
        <time>2015-02-19T13:48:26Z</time>
      </trkpt>
      <trkpt lat="42.9935" lon="-0.70264">
        <ele>1192.3</ele>
        <time>2015-02-19T13:48:28Z</time>
      </trkpt>
      <trkpt lat="42.9936" lon="-0.70248">
        <ele>1188.2</ele>
        <time>2015-02-19T13:48:30Z</time>
      </trkpt>
      <trkpt lat="42.99372" lon="-0.70233">
        <ele>1185.6</ele>
        <time>2015-02-19T13:48:32Z</time>
      </trkpt>
      <trkpt lat="42.9938" lon="-0.70219">
        <ele>1182.4</ele>
        <time>2015-02-19T13:48:34Z</time>
      </trkpt>
      <trkpt lat="42.99384" lon="-0.70198">
        <ele>1180.1</ele>
        <time>2015-02-19T13:48:36Z</time>
      </trkpt>
      <trkpt lat="42.99383" lon="-0.70181">
        <ele>1177.9</ele>
        <time>2015-02-19T13:48:38Z</time>
      </trkpt>
      <trkpt lat="42.99383" lon="-0.70168">
        <ele>1175</ele>
        <time>2015-02-19T13:49:58Z</time>
      </trkpt>
      <trkpt lat="42.99388" lon="-0.70153">
        <ele>1170.9</ele>
        <time>2015-02-19T13:50:01Z</time>
      </trkpt>
      <trkpt lat="42.99394" lon="-0.70135">
        <ele>1167.9</ele>
        <time>2015-02-19T13:50:03Z</time>
      </trkpt>
      <trkpt lat="42.994" lon="-0.7012">
        <ele>1166</ele>
        <time>2015-02-19T13:50:05Z</time>
      </trkpt>
      <trkpt lat="42.99405" lon="-0.70109">
        <ele>1164.9</ele>
        <time>2015-02-19T13:50:07Z</time>
      </trkpt>
      <trkpt lat="42.99413" lon="-0.70097">
        <ele>1164.9</ele>
        <time>2015-02-19T13:50:56Z</time>
      </trkpt>
      <trkpt lat="42.99418" lon="-0.70087">
        <ele>1164.6</ele>
        <time>2015-02-19T13:50:59Z</time>
      </trkpt>
      <trkpt lat="42.99426" lon="-0.70076">
        <ele>1163.7</ele>
        <time>2015-02-19T13:51:02Z</time>
      </trkpt>
      <trkpt lat="42.99435" lon="-0.70077">
        <ele>1162</ele>
        <time>2015-02-19T13:51:04Z</time>
      </trkpt>
      <trkpt lat="42.99445" lon="-0.70076">
        <ele>1159.1</ele>
        <time>2015-02-19T13:51:06Z</time>
      </trkpt>
      <trkpt lat="42.99455" lon="-0.7008">
        <ele>1156.3</ele>
        <time>2015-02-19T13:51:08Z</time>
      </trkpt>
      <trkpt lat="42.99461" lon="-0.70093">
        <ele>1154.2</ele>
        <time>2015-02-19T13:51:11Z</time>
      </trkpt>
      <trkpt lat="42.99463" lon="-0.70108">
        <ele>1151.9</ele>
        <time>2015-02-19T13:51:13Z</time>
      </trkpt>
      <trkpt lat="42.99467" lon="-0.70124">
        <ele>1150.1</ele>
        <time>2015-02-19T13:51:15Z</time>
      </trkpt>
      <trkpt lat="42.99471" lon="-0.70137">
        <ele>1148.2</ele>
        <time>2015-02-19T13:51:17Z</time>
      </trkpt>
      <trkpt lat="42.99482" lon="-0.70133">
        <ele>1145.7</ele>
        <time>2015-02-19T13:52:12Z</time>
      </trkpt>
      <trkpt lat="42.99492" lon="-0.70133">
        <ele>1145.5</ele>
        <time>2015-02-19T13:52:15Z</time>
      </trkpt>
      <trkpt lat="42.99501" lon="-0.70141">
        <ele>1144.9</ele>
        <time>2015-02-19T13:52:21Z</time>
      </trkpt>
      <trkpt lat="42.9951" lon="-0.70146">
        <ele>1143.6</ele>
        <time>2015-02-19T13:52:34Z</time>
      </trkpt>
      <trkpt lat="42.99516" lon="-0.70157">
        <ele>1143.5</ele>
        <time>2015-02-19T13:52:54Z</time>
      </trkpt>
      <trkpt lat="42.9952" lon="-0.70169">
        <ele>1142.5</ele>
        <time>2015-02-19T13:54:06Z</time>
      </trkpt>
      <trkpt lat="42.99521" lon="-0.70184">
        <ele>1138.2</ele>
        <time>2015-02-19T13:54:24Z</time>
      </trkpt>
      <trkpt lat="42.99515" lon="-0.70205">
        <ele>1135.6</ele>
        <time>2015-02-19T13:54:49Z</time>
      </trkpt>
      <trkpt lat="42.99516" lon="-0.70224">
        <ele>1134.2</ele>
        <time>2015-02-19T13:55:03Z</time>
      </trkpt>
      <trkpt lat="42.99519" lon="-0.70235">
        <ele>1133.3</ele>
        <time>2015-02-19T13:55:18Z</time>
      </trkpt>
      <trkpt lat="42.9952" lon="-0.70248">
        <ele>1132.7</ele>
        <time>2015-02-19T13:55:48Z</time>
      </trkpt>
      <trkpt lat="42.99522" lon="-0.70235">
        <ele>1133</ele>
        <time>2015-02-19T13:56:26Z</time>
      </trkpt>
      <trkpt lat="42.99515" lon="-0.70243">
        <ele>1134.1</ele>
        <time>2015-02-19T13:56:52Z</time>
      </trkpt>
      <trkpt lat="42.99518" lon="-0.70255">
        <ele>1136.5</ele>
        <time>2015-02-19T13:57:36Z</time>
      </trkpt>
      <trkpt lat="42.99518" lon="-0.70273">
        <ele>1136.7</ele>
        <time>2015-02-19T13:57:39Z</time>
      </trkpt>
      <trkpt lat="42.99516" lon="-0.70288">
        <ele>1136.6</ele>
        <time>2015-02-19T13:57:42Z</time>
      </trkpt>
      <trkpt lat="42.99514" lon="-0.70302">
        <ele>1136.5</ele>
        <time>2015-02-19T13:57:45Z</time>
      </trkpt>
      <trkpt lat="42.99517" lon="-0.7032">
        <ele>1136.1</ele>
        <time>2015-02-19T13:57:48Z</time>
      </trkpt>
      <trkpt lat="42.9952" lon="-0.70333">
        <ele>1135.8</ele>
        <time>2015-02-19T13:57:50Z</time>
      </trkpt>
      <trkpt lat="42.99521" lon="-0.70346">
        <ele>1135.5</ele>
        <time>2015-02-19T13:57:52Z</time>
      </trkpt>
      <trkpt lat="42.99523" lon="-0.70363">
        <ele>1135.1</ele>
        <time>2015-02-19T13:57:54Z</time>
      </trkpt>
      <trkpt lat="42.99522" lon="-0.70375">
        <ele>1134.8</ele>
        <time>2015-02-19T13:57:56Z</time>
      </trkpt>
      <trkpt lat="42.99525" lon="-0.70386">
        <ele>1134.4</ele>
        <time>2015-02-19T13:58:00Z</time>
      </trkpt>
      <trkpt lat="42.99532" lon="-0.70395">
        <ele>1133.3</ele>
        <time>2015-02-19T13:58:09Z</time>
      </trkpt>
      <trkpt lat="42.99537" lon="-0.70406">
        <ele>1125</ele>
        <time>2015-02-19T13:59:13Z</time>
      </trkpt>
      <trkpt lat="42.99533" lon="-0.70395">
        <ele>1118.7</ele>
        <time>2015-02-19T14:00:54Z</time>
      </trkpt>
      <trkpt lat="42.99531" lon="-0.70382">
        <ele>1118.8</ele>
        <time>2015-02-19T14:01:16Z</time>
      </trkpt>
      <trkpt lat="42.99526" lon="-0.70371">
        <ele>1118.9</ele>
        <time>2015-02-19T14:01:27Z</time>
      </trkpt>
      <trkpt lat="42.99529" lon="-0.70359">
        <ele>1119.6</ele>
        <time>2015-02-19T14:01:46Z</time>
      </trkpt>
      <trkpt lat="42.99532" lon="-0.70347">
        <ele>1121.9</ele>
        <time>2015-02-19T14:01:59Z</time>
      </trkpt>
      <trkpt lat="42.9953" lon="-0.70335">
        <ele>1122.5</ele>
        <time>2015-02-19T14:02:13Z</time>
      </trkpt>
      <trkpt lat="42.99526" lon="-0.70324">
        <ele>1122</ele>
        <time>2015-02-19T14:03:01Z</time>
      </trkpt>
      <trkpt lat="42.99527" lon="-0.70311">
        <ele>1122.4</ele>
        <time>2015-02-19T14:03:06Z</time>
      </trkpt>
      <trkpt lat="42.99531" lon="-0.70299">
        <ele>1122.9</ele>
        <time>2015-02-19T14:03:16Z</time>
      </trkpt>
      <trkpt lat="42.99527" lon="-0.70287">
        <ele>1124</ele>
        <time>2015-02-19T14:04:22Z</time>
      </trkpt>
      <trkpt lat="42.99527" lon="-0.70275">
        <ele>1125.7</ele>
        <time>2015-02-19T14:04:43Z</time>
      </trkpt>
      <trkpt lat="42.99531" lon="-0.70261">
        <ele>1125.8</ele>
        <time>2015-02-19T14:04:53Z</time>
      </trkpt>
      <trkpt lat="42.99529" lon="-0.70249">
        <ele>1125.5</ele>
        <time>2015-02-19T14:05:05Z</time>
      </trkpt>
      <trkpt lat="42.9952" lon="-0.70251">
        <ele>1127.4</ele>
        <time>2015-02-19T14:05:38Z</time>
      </trkpt>
      <trkpt lat="42.99515" lon="-0.7024">
        <ele>1126.5</ele>
        <time>2015-02-19T14:07:07Z</time>
      </trkpt>
      <trkpt lat="42.99514" lon="-0.70227">
        <ele>1127.3</ele>
        <time>2015-02-19T14:07:23Z</time>
      </trkpt>
      <trkpt lat="42.99515" lon="-0.70215">
        <ele>1126.3</ele>
        <time>2015-02-19T14:07:32Z</time>
      </trkpt>
      <trkpt lat="42.99512" lon="-0.70202">
        <ele>1125</ele>
        <time>2015-02-19T14:07:43Z</time>
      </trkpt>
      <trkpt lat="42.99514" lon="-0.70189">
        <ele>1124.8</ele>
        <time>2015-02-19T14:07:47Z</time>
      </trkpt>
      <trkpt lat="42.99522" lon="-0.70179">
        <ele>1124.9</ele>
        <time>2015-02-19T14:07:49Z</time>
      </trkpt>
      <trkpt lat="42.99527" lon="-0.70165">
        <ele>1125.1</ele>
        <time>2015-02-19T14:07:52Z</time>
      </trkpt>
      <trkpt lat="42.99533" lon="-0.70154">
        <ele>1125.1</ele>
        <time>2015-02-19T14:07:54Z</time>
      </trkpt>
      <trkpt lat="42.9954" lon="-0.70141">
        <ele>1125.1</ele>
        <time>2015-02-19T14:07:56Z</time>
      </trkpt>
      <trkpt lat="42.99544" lon="-0.70128">
        <ele>1125.1</ele>
        <time>2015-02-19T14:07:58Z</time>
      </trkpt>
      <trkpt lat="42.99547" lon="-0.70116">
        <ele>1124.9</ele>
        <time>2015-02-19T14:08:00Z</time>
      </trkpt>
      <trkpt lat="42.99548" lon="-0.70102">
        <ele>1124.7</ele>
        <time>2015-02-19T14:08:02Z</time>
      </trkpt>
      <trkpt lat="42.99549" lon="-0.70088">
        <ele>1124.4</ele>
        <time>2015-02-19T14:08:04Z</time>
      </trkpt>
      <trkpt lat="42.99549" lon="-0.7007">
        <ele>1124.2</ele>
        <time>2015-02-19T14:08:06Z</time>
      </trkpt>
      <trkpt lat="42.99544" lon="-0.70056">
        <ele>1124.1</ele>
        <time>2015-02-19T14:08:08Z</time>
      </trkpt>
      <trkpt lat="42.99538" lon="-0.70044">
        <ele>1122.7</ele>
        <time>2015-02-19T14:08:10Z</time>
      </trkpt>
      <trkpt lat="42.99532" lon="-0.70035">
        <ele>1122.5</ele>
        <time>2015-02-19T14:08:12Z</time>
      </trkpt>
      <trkpt lat="42.99526" lon="-0.70024">
        <ele>1122.1</ele>
        <time>2015-02-19T14:08:15Z</time>
      </trkpt>
      <trkpt lat="42.99522" lon="-0.70013">
        <ele>1121.6</ele>
        <time>2015-02-19T14:08:18Z</time>
      </trkpt>
      <trkpt lat="42.99515" lon="-0.70004">
        <ele>1120.9</ele>
        <time>2015-02-19T14:08:23Z</time>
      </trkpt>
      <trkpt lat="42.99505" lon="-0.70008">
        <ele>1120.8</ele>
        <time>2015-02-19T14:08:31Z</time>
      </trkpt>
      <trkpt lat="42.99514" lon="-0.69997">
        <ele>1118.1</ele>
        <time>2015-02-19T14:09:54Z</time>
      </trkpt>
      <trkpt lat="42.99504" lon="-0.69989">
        <ele>1118.1</ele>
        <time>2015-02-19T14:10:25Z</time>
      </trkpt>
      <trkpt lat="42.995" lon="-0.69978">
        <ele>1118.3</ele>
        <time>2015-02-19T14:10:29Z</time>
      </trkpt>
      <trkpt lat="42.99494" lon="-0.69963">
        <ele>1118.5</ele>
        <time>2015-02-19T14:10:34Z</time>
      </trkpt>
      <trkpt lat="42.99491" lon="-0.69949">
        <ele>1117.6</ele>
        <time>2015-02-19T14:10:37Z</time>
      </trkpt>
      <trkpt lat="42.99489" lon="-0.69935">
        <ele>1116.9</ele>
        <time>2015-02-19T14:10:42Z</time>
      </trkpt>
      <trkpt lat="42.99489" lon="-0.69919">
        <ele>1116.2</ele>
        <time>2015-02-19T14:10:47Z</time>
      </trkpt>
      <trkpt lat="42.99491" lon="-0.69907">
        <ele>1115.6</ele>
        <time>2015-02-19T14:10:49Z</time>
      </trkpt>
      <trkpt lat="42.99495" lon="-0.69892">
        <ele>1114</ele>
        <time>2015-02-19T14:10:53Z</time>
      </trkpt>
      <trkpt lat="42.99494" lon="-0.6988">
        <ele>1111.6</ele>
        <time>2015-02-19T14:11:00Z</time>
      </trkpt>
      <trkpt lat="42.99494" lon="-0.69866">
        <ele>1110</ele>
        <time>2015-02-19T14:11:04Z</time>
      </trkpt>
      <trkpt lat="42.99498" lon="-0.69854">
        <ele>1105.7</ele>
        <time>2015-02-19T14:11:16Z</time>
      </trkpt>
      <trkpt lat="42.99496" lon="-0.69839">
        <ele>1097.3</ele>
        <time>2015-02-19T14:11:55Z</time>
      </trkpt>
      <trkpt lat="42.99499" lon="-0.69826">
        <ele>1091.5</ele>
        <time>2015-02-19T14:11:57Z</time>
      </trkpt>
      <trkpt lat="42.995" lon="-0.69814">
        <ele>1088.5</ele>
        <time>2015-02-19T14:12:03Z</time>
      </trkpt>
      <trkpt lat="42.99505" lon="-0.69803">
        <ele>1086.2</ele>
        <time>2015-02-19T14:12:12Z</time>
      </trkpt>
      <trkpt lat="42.99514" lon="-0.69796">
        <ele>1083.3</ele>
        <time>2015-02-19T14:12:14Z</time>
      </trkpt>
      <trkpt lat="42.99523" lon="-0.69798">
        <ele>1082.8</ele>
        <time>2015-02-19T14:12:17Z</time>
      </trkpt>
      <trkpt lat="42.99529" lon="-0.69808">
        <ele>1082.7</ele>
        <time>2015-02-19T14:12:20Z</time>
      </trkpt>
      <trkpt lat="42.9953" lon="-0.69821">
        <ele>1080.2</ele>
        <time>2015-02-19T14:12:52Z</time>
      </trkpt>
      <trkpt lat="42.99531" lon="-0.69834">
        <ele>1077.9</ele>
        <time>2015-02-19T14:13:03Z</time>
      </trkpt>
      <trkpt lat="42.99538" lon="-0.69841">
        <ele>1074.7</ele>
        <time>2015-02-19T14:13:27Z</time>
      </trkpt>
      <trkpt lat="42.99546" lon="-0.69851">
        <ele>1074</ele>
        <time>2015-02-19T14:13:30Z</time>
      </trkpt>
      <trkpt lat="42.99552" lon="-0.69862">
        <ele>1073.3</ele>
        <time>2015-02-19T14:13:32Z</time>
      </trkpt>
      <trkpt lat="42.99559" lon="-0.69855">
        <ele>1071.3</ele>
        <time>2015-02-19T14:13:41Z</time>
      </trkpt>
      <trkpt lat="42.99568" lon="-0.69868">
        <ele>1068.1</ele>
        <time>2015-02-19T14:14:05Z</time>
      </trkpt>
      <trkpt lat="42.99579" lon="-0.69876">
        <ele>1067.5</ele>
        <time>2015-02-19T14:14:08Z</time>
      </trkpt>
      <trkpt lat="42.99587" lon="-0.69887">
        <ele>1065.9</ele>
        <time>2015-02-19T14:14:14Z</time>
      </trkpt>
      <trkpt lat="42.99596" lon="-0.69897">
        <ele>1063.1</ele>
        <time>2015-02-19T14:14:17Z</time>
      </trkpt>
      <trkpt lat="42.99601" lon="-0.69907">
        <ele>1062.2</ele>
        <time>2015-02-19T14:14:21Z</time>
      </trkpt>
      <trkpt lat="42.9961" lon="-0.69916">
        <ele>1056.2</ele>
        <time>2015-02-19T14:15:18Z</time>
      </trkpt>
      <trkpt lat="42.99621" lon="-0.69927">
        <ele>1056</ele>
        <time>2015-02-19T14:15:21Z</time>
      </trkpt>
      <trkpt lat="42.99631" lon="-0.69936">
        <ele>1055.7</ele>
        <time>2015-02-19T14:15:25Z</time>
      </trkpt>
      <trkpt lat="42.99637" lon="-0.69946">
        <ele>1053.9</ele>
        <time>2015-02-19T14:15:35Z</time>
      </trkpt>
      <trkpt lat="42.99641" lon="-0.69959">
        <ele>1046.3</ele>
        <time>2015-02-19T14:16:00Z</time>
      </trkpt>
      <trkpt lat="42.99648" lon="-0.69967">
        <ele>1044.1</ele>
        <time>2015-02-19T14:16:03Z</time>
      </trkpt>
      <trkpt lat="42.99656" lon="-0.69977">
        <ele>1041.5</ele>
        <time>2015-02-19T14:16:07Z</time>
      </trkpt>
      <trkpt lat="42.99663" lon="-0.69987">
        <ele>1039.3</ele>
        <time>2015-02-19T14:16:11Z</time>
      </trkpt>
      <trkpt lat="42.99671" lon="-0.69998">
        <ele>1037.1</ele>
        <time>2015-02-19T14:16:15Z</time>
      </trkpt>
      <trkpt lat="42.9968" lon="-0.70007">
        <ele>1035.4</ele>
        <time>2015-02-19T14:16:18Z</time>
      </trkpt>
      <trkpt lat="42.99688" lon="-0.70019">
        <ele>1033.2</ele>
        <time>2015-02-19T14:16:22Z</time>
      </trkpt>
      <trkpt lat="42.99692" lon="-0.70031">
        <ele>1022.7</ele>
        <time>2015-02-19T14:16:24Z</time>
      </trkpt>
      <trkpt lat="42.99699" lon="-0.70043">
        <ele>1018.9</ele>
        <time>2015-02-19T14:16:26Z</time>
      </trkpt>
      <trkpt lat="42.997" lon="-0.70057">
        <ele>1018.1</ele>
        <time>2015-02-19T14:16:29Z</time>
      </trkpt>
      <trkpt lat="42.99704" lon="-0.70068">
        <ele>1016.8</ele>
        <time>2015-02-19T14:16:42Z</time>
      </trkpt>
      <trkpt lat="42.99702" lon="-0.70085">
        <ele>1014.5</ele>
        <time>2015-02-19T14:16:48Z</time>
      </trkpt>
      <trkpt lat="42.99697" lon="-0.70099">
        <ele>1013.4</ele>
        <time>2015-02-19T14:16:51Z</time>
      </trkpt>
      <trkpt lat="42.99694" lon="-0.70116">
        <ele>1011.8</ele>
        <time>2015-02-19T14:16:55Z</time>
      </trkpt>
      <trkpt lat="42.99695" lon="-0.70129">
        <ele>1010.4</ele>
        <time>2015-02-19T14:16:58Z</time>
      </trkpt>
      <trkpt lat="42.99696" lon="-0.70146">
        <ele>1008.9</ele>
        <time>2015-02-19T14:17:01Z</time>
      </trkpt>
      <trkpt lat="42.99701" lon="-0.7016">
        <ele>1000.1</ele>
        <time>2015-02-19T14:17:03Z</time>
      </trkpt>
      <trkpt lat="42.99712" lon="-0.70166">
        <ele>994.5</ele>
        <time>2015-02-19T14:17:05Z</time>
      </trkpt>
      <trkpt lat="42.99724" lon="-0.70171">
        <ele>988.7</ele>
        <time>2015-02-19T14:17:07Z</time>
      </trkpt>
      <trkpt lat="42.99733" lon="-0.7016">
        <ele>985.2</ele>
        <time>2015-02-19T14:17:11Z</time>
      </trkpt>
      <trkpt lat="42.99738" lon="-0.70144">
        <ele>984.6</ele>
        <time>2015-02-19T14:17:14Z</time>
      </trkpt>
      <trkpt lat="42.9974" lon="-0.70132">
        <ele>984.2</ele>
        <time>2015-02-19T14:17:16Z</time>
      </trkpt>
      <trkpt lat="42.99743" lon="-0.7012">
        <ele>983.4</ele>
        <time>2015-02-19T14:17:20Z</time>
      </trkpt>
      <trkpt lat="42.99744" lon="-0.70107">
        <ele>980.2</ele>
        <time>2015-02-19T14:19:00Z</time>
      </trkpt>
      <trkpt lat="42.9975" lon="-0.70094">
        <ele>981.2</ele>
        <time>2015-02-19T14:19:04Z</time>
      </trkpt>
      <trkpt lat="42.99756" lon="-0.70086">
        <ele>972.6</ele>
        <time>2015-02-19T14:20:06Z</time>
      </trkpt>
      <trkpt lat="42.99766" lon="-0.70077">
        <ele>970.9</ele>
        <time>2015-02-19T14:20:10Z</time>
      </trkpt>
      <trkpt lat="42.99775" lon="-0.70071">
        <ele>969.5</ele>
        <time>2015-02-19T14:20:13Z</time>
      </trkpt>
      <trkpt lat="42.99783" lon="-0.70063">
        <ele>968.2</ele>
        <time>2015-02-19T14:20:16Z</time>
      </trkpt>
      <trkpt lat="42.99788" lon="-0.70052">
        <ele>966.9</ele>
        <time>2015-02-19T14:20:19Z</time>
      </trkpt>
      <trkpt lat="42.99794" lon="-0.70037">
        <ele>965.1</ele>
        <time>2015-02-19T14:20:23Z</time>
      </trkpt>
      <trkpt lat="42.99795" lon="-0.7002">
        <ele>963.4</ele>
        <time>2015-02-19T14:20:27Z</time>
      </trkpt>
      <trkpt lat="42.99798" lon="-0.70007">
        <ele>955.6</ele>
        <time>2015-02-19T14:21:16Z</time>
      </trkpt>
      <trkpt lat="42.998" lon="-0.69993">
        <ele>954.1</ele>
        <time>2015-02-19T14:21:19Z</time>
      </trkpt>
      <trkpt lat="42.99797" lon="-0.69981">
        <ele>952.6</ele>
        <time>2015-02-19T14:21:34Z</time>
      </trkpt>
      <trkpt lat="42.99792" lon="-0.6997">
        <ele>952.1</ele>
        <time>2015-02-19T14:21:42Z</time>
      </trkpt>
      <trkpt lat="42.99795" lon="-0.69958">
        <ele>937.8</ele>
        <time>2015-02-19T14:22:55Z</time>
      </trkpt>
      <trkpt lat="42.99795" lon="-0.69944">
        <ele>937</ele>
        <time>2015-02-19T14:22:59Z</time>
      </trkpt>
      <trkpt lat="42.99794" lon="-0.69931">
        <ele>934.7</ele>
        <time>2015-02-19T14:23:23Z</time>
      </trkpt>
      <trkpt lat="42.99792" lon="-0.69916">
        <ele>934.1</ele>
        <time>2015-02-19T14:23:25Z</time>
      </trkpt>
      <trkpt lat="42.99789" lon="-0.69905">
        <ele>930.6</ele>
        <time>2015-02-19T14:23:27Z</time>
      </trkpt>
      <trkpt lat="42.99783" lon="-0.69893">
        <ele>927.2</ele>
        <time>2015-02-19T14:23:29Z</time>
      </trkpt>
      <trkpt lat="42.99779" lon="-0.69881">
        <ele>922.2</ele>
        <time>2015-02-19T14:23:31Z</time>
      </trkpt>
      <trkpt lat="42.99773" lon="-0.69868">
        <ele>919</ele>
        <time>2015-02-19T14:23:33Z</time>
      </trkpt>
      <trkpt lat="42.99767" lon="-0.69854">
        <ele>915.8</ele>
        <time>2015-02-19T14:23:35Z</time>
      </trkpt>
      <trkpt lat="42.99761" lon="-0.69838">
        <ele>912.5</ele>
        <time>2015-02-19T14:23:37Z</time>
      </trkpt>
      <trkpt lat="42.99759" lon="-0.69823">
        <ele>909.6</ele>
        <time>2015-02-19T14:23:39Z</time>
      </trkpt>
      <trkpt lat="42.99756" lon="-0.6981">
        <ele>907.3</ele>
        <time>2015-02-19T14:23:41Z</time>
      </trkpt>
      <trkpt lat="42.99753" lon="-0.69796">
        <ele>907.1</ele>
        <time>2015-02-19T14:23:44Z</time>
      </trkpt>
      <trkpt lat="42.99749" lon="-0.69781">
        <ele>907</ele>
        <time>2015-02-19T14:23:47Z</time>
      </trkpt>
      <trkpt lat="42.99746" lon="-0.69766">
        <ele>906.8</ele>
        <time>2015-02-19T14:23:49Z</time>
      </trkpt>
      <trkpt lat="42.99742" lon="-0.69754">
        <ele>906.8</ele>
        <time>2015-02-19T14:23:52Z</time>
      </trkpt>
      <trkpt lat="42.99737" lon="-0.69743">
        <ele>906.2</ele>
        <time>2015-02-19T14:25:32Z</time>
      </trkpt>
      <trkpt lat="42.99737" lon="-0.69746">
        <ele>906.4</ele>
        <time>2015-02-19T14:26:10Z</time>
      </trkpt>
    </trkseg>
  </trk>
</gpx>